<?xml version="1.0" encoding="UTF-8" standalone="no" ?>
<gpx xmlns="http://www.topografix.com/GPX/1/1" xmlns:xsi="http://www.w3.org/2001/XMLSchema-instance" xsi:schemaLocation="http://www.topografix.com/GPX/1/1 http://www.topografix.com/GPX/1/1/gpx.xsd" version="1.1" creator="VisuGPX - https://www.visugpx.com">
  <metadata>
    <name>Le Mont Jovet (73 Vanoise)</name>
    <desc><![CDATA[Départ de Nore-Dame-du-Pré
Photos et infos sur : www.photosrandos.fr]]></desc>
  </metadata>
  <trk>
    <name><![CDATA[track]]></name>
    <trkseg>
      <trkpt lat="45.5096" lon="6.59385">
        <ele>1231</ele>
        <time>2008-01-27T07:54:56Z</time>
      </trkpt>
      <trkpt lat="45.50953" lon="6.59407">
        <ele>1231</ele>
        <time>2008-01-27T07:55:29Z</time>
      </trkpt>
      <trkpt lat="45.50943" lon="6.59427">
        <ele>1233</ele>
        <time>2008-01-27T07:55:51Z</time>
      </trkpt>
      <trkpt lat="45.50932" lon="6.59445">
        <ele>1232</ele>
        <time>2008-01-27T08:00:09Z</time>
      </trkpt>
      <trkpt lat="45.50922" lon="6.59465">
        <ele>1238</ele>
        <time>2008-01-27T08:02:06Z</time>
      </trkpt>
      <trkpt lat="45.50912" lon="6.59485">
        <ele>1243</ele>
        <time>2008-01-27T08:02:32Z</time>
      </trkpt>
      <trkpt lat="45.50905" lon="6.59508">
        <ele>1248</ele>
        <time>2008-01-27T08:03:02Z</time>
      </trkpt>
      <trkpt lat="45.50888" lon="6.59515">
        <ele>1253</ele>
        <time>2008-01-27T08:03:34Z</time>
      </trkpt>
      <trkpt lat="45.50872" lon="6.59512">
        <ele>1256</ele>
        <time>2008-01-27T08:04:02Z</time>
      </trkpt>
      <trkpt lat="45.50855" lon="6.59505">
        <ele>1260</ele>
        <time>2008-01-27T08:04:35Z</time>
      </trkpt>
      <trkpt lat="45.50838" lon="6.59498">
        <ele>1264</ele>
        <time>2008-01-27T08:05:11Z</time>
      </trkpt>
      <trkpt lat="45.50827" lon="6.59517">
        <ele>1273</ele>
        <time>2008-01-27T08:06:17Z</time>
      </trkpt>
      <trkpt lat="45.50812" lon="6.59505">
        <ele>1277</ele>
        <time>2008-01-27T08:06:52Z</time>
      </trkpt>
      <trkpt lat="45.50802" lon="6.59525">
        <ele>1285</ele>
        <time>2008-01-27T08:07:58Z</time>
      </trkpt>
      <trkpt lat="45.50803" lon="6.59548">
        <ele>1290</ele>
        <time>2008-01-27T08:08:36Z</time>
      </trkpt>
      <trkpt lat="45.50788" lon="6.59562">
        <ele>1299</ele>
        <time>2008-01-27T08:09:53Z</time>
      </trkpt>
      <trkpt lat="45.50792" lon="6.59587">
        <ele>1305</ele>
        <time>2008-01-27T08:10:39Z</time>
      </trkpt>
      <trkpt lat="45.50775" lon="6.59588">
        <ele>1309</ele>
        <time>2008-01-27T08:11:46Z</time>
      </trkpt>
      <trkpt lat="45.5076" lon="6.59575">
        <ele>1313</ele>
        <time>2008-01-27T08:12:24Z</time>
      </trkpt>
      <trkpt lat="45.50743" lon="6.59568">
        <ele>1317</ele>
        <time>2008-01-27T08:13:04Z</time>
      </trkpt>
      <trkpt lat="45.5073" lon="6.59583">
        <ele>1322</ele>
        <time>2008-01-27T08:14:15Z</time>
      </trkpt>
      <trkpt lat="45.50713" lon="6.59592">
        <ele>1326</ele>
        <time>2008-01-27T08:14:47Z</time>
      </trkpt>
      <trkpt lat="45.50702" lon="6.5961">
        <ele>1332</ele>
        <time>2008-01-27T08:15:29Z</time>
      </trkpt>
      <trkpt lat="45.50698" lon="6.59633">
        <ele>1340</ele>
        <time>2008-01-27T08:16:14Z</time>
      </trkpt>
      <trkpt lat="45.50683" lon="6.59647">
        <ele>1348</ele>
        <time>2008-01-27T08:17:06Z</time>
      </trkpt>
      <trkpt lat="45.5068" lon="6.59672">
        <ele>1353</ele>
        <time>2008-01-27T08:17:44Z</time>
      </trkpt>
      <trkpt lat="45.5067" lon="6.59692">
        <ele>1358</ele>
        <time>2008-01-27T08:18:32Z</time>
      </trkpt>
      <trkpt lat="45.50667" lon="6.59717">
        <ele>1362</ele>
        <time>2008-01-27T08:19:03Z</time>
      </trkpt>
      <trkpt lat="45.50652" lon="6.5973">
        <ele>1368</ele>
        <time>2008-01-27T08:19:49Z</time>
      </trkpt>
      <trkpt lat="45.50647" lon="6.59753">
        <ele>1372</ele>
        <time>2008-01-27T08:20:23Z</time>
      </trkpt>
      <trkpt lat="45.5063" lon="6.59762">
        <ele>1379</ele>
        <time>2008-01-27T08:21:16Z</time>
      </trkpt>
      <trkpt lat="45.50628" lon="6.59787">
        <ele>1385</ele>
        <time>2008-01-27T08:21:54Z</time>
      </trkpt>
      <trkpt lat="45.50628" lon="6.59812">
        <ele>1390</ele>
        <time>2008-01-27T08:22:32Z</time>
      </trkpt>
      <trkpt lat="45.50612" lon="6.59812">
        <ele>1396</ele>
        <time>2008-01-27T08:23:32Z</time>
      </trkpt>
      <trkpt lat="45.506" lon="6.5983">
        <ele>1401</ele>
        <time>2008-01-27T08:24:11Z</time>
      </trkpt>
      <trkpt lat="45.50597" lon="6.59855">
        <ele>1407</ele>
        <time>2008-01-27T08:24:47Z</time>
      </trkpt>
      <trkpt lat="45.50593" lon="6.5988">
        <ele>1413</ele>
        <time>2008-01-27T08:25:29Z</time>
      </trkpt>
      <trkpt lat="45.50588" lon="6.59903">
        <ele>1418</ele>
        <time>2008-01-27T08:26:03Z</time>
      </trkpt>
      <trkpt lat="45.50588" lon="6.59928">
        <ele>1424</ele>
        <time>2008-01-27T08:26:40Z</time>
      </trkpt>
      <trkpt lat="45.50583" lon="6.59952">
        <ele>1427</ele>
        <time>2008-01-27T08:27:14Z</time>
      </trkpt>
      <trkpt lat="45.5058" lon="6.59977">
        <ele>1430</ele>
        <time>2008-01-27T08:27:48Z</time>
      </trkpt>
      <trkpt lat="45.50578" lon="6.60002">
        <ele>1432</ele>
        <time>2008-01-27T08:28:16Z</time>
      </trkpt>
      <trkpt lat="45.50572" lon="6.60025">
        <ele>1435</ele>
        <time>2008-01-27T08:28:44Z</time>
      </trkpt>
      <trkpt lat="45.50565" lon="6.60048">
        <ele>1439</ele>
        <time>2008-01-27T08:29:13Z</time>
      </trkpt>
      <trkpt lat="45.50567" lon="6.60073">
        <ele>1443</ele>
        <time>2008-01-27T08:29:45Z</time>
      </trkpt>
      <trkpt lat="45.50568" lon="6.60098">
        <ele>1447</ele>
        <time>2008-01-27T08:30:17Z</time>
      </trkpt>
      <trkpt lat="45.50572" lon="6.60123">
        <ele>1452</ele>
        <time>2008-01-27T08:30:53Z</time>
      </trkpt>
      <trkpt lat="45.50575" lon="6.60148">
        <ele>1457</ele>
        <time>2008-01-27T08:31:27Z</time>
      </trkpt>
      <trkpt lat="45.50568" lon="6.60172">
        <ele>1463</ele>
        <time>2008-01-27T08:32:04Z</time>
      </trkpt>
      <trkpt lat="45.50562" lon="6.60195">
        <ele>1471</ele>
        <time>2008-01-27T08:32:46Z</time>
      </trkpt>
      <trkpt lat="45.50552" lon="6.60213">
        <ele>1477</ele>
        <time>2008-01-27T08:33:22Z</time>
      </trkpt>
      <trkpt lat="45.5054" lon="6.6023">
        <ele>1483</ele>
        <time>2008-01-27T08:34:01Z</time>
      </trkpt>
      <trkpt lat="45.50533" lon="6.60253">
        <ele>1496</ele>
        <time>2008-01-27T08:38:57Z</time>
      </trkpt>
      <trkpt lat="45.50538" lon="6.60277">
        <ele>1509</ele>
        <time>2008-01-27T08:39:51Z</time>
      </trkpt>
      <trkpt lat="45.50545" lon="6.603">
        <ele>1507</ele>
        <time>2008-01-27T08:40:23Z</time>
      </trkpt>
      <trkpt lat="45.50557" lon="6.60317">
        <ele>1511</ele>
        <time>2008-01-27T08:41:05Z</time>
      </trkpt>
      <trkpt lat="45.50572" lon="6.60327">
        <ele>1507</ele>
        <time>2008-01-27T08:41:38Z</time>
      </trkpt>
      <trkpt lat="45.5058" lon="6.60348">
        <ele>1510</ele>
        <time>2008-01-27T08:42:24Z</time>
      </trkpt>
      <trkpt lat="45.50582" lon="6.60373">
        <ele>1556</ele>
        <time>2008-01-27T08:44:27Z</time>
      </trkpt>
      <trkpt lat="45.50593" lon="6.6039">
        <ele>1546</ele>
        <time>2008-01-27T08:44:47Z</time>
      </trkpt>
      <trkpt lat="45.50607" lon="6.60407">
        <ele>1551</ele>
        <time>2008-01-27T08:45:23Z</time>
      </trkpt>
      <trkpt lat="45.50622" lon="6.60418">
        <ele>1574</ele>
        <time>2008-01-27T08:46:26Z</time>
      </trkpt>
      <trkpt lat="45.50635" lon="6.60433">
        <ele>1577</ele>
        <time>2008-01-27T08:47:00Z</time>
      </trkpt>
      <trkpt lat="45.50628" lon="6.60457">
        <ele>1573</ele>
        <time>2008-01-27T08:48:13Z</time>
      </trkpt>
      <trkpt lat="45.50612" lon="6.60462">
        <ele>1575</ele>
        <time>2008-01-27T08:48:47Z</time>
      </trkpt>
      <trkpt lat="45.50595" lon="6.60462">
        <ele>1583</ele>
        <time>2008-01-27T08:49:09Z</time>
      </trkpt>
      <trkpt lat="45.50578" lon="6.60463">
        <ele>1585</ele>
        <time>2008-01-27T08:49:37Z</time>
      </trkpt>
      <trkpt lat="45.50562" lon="6.60462">
        <ele>1588</ele>
        <time>2008-01-27T08:50:01Z</time>
      </trkpt>
      <trkpt lat="45.50577" lon="6.60475">
        <ele>1629</ele>
        <time>2008-01-27T08:51:52Z</time>
      </trkpt>
      <trkpt lat="45.5059" lon="6.60492">
        <ele>1620</ele>
        <time>2008-01-27T08:52:28Z</time>
      </trkpt>
      <trkpt lat="45.50575" lon="6.60503">
        <ele>1623</ele>
        <time>2008-01-27T08:53:09Z</time>
      </trkpt>
      <trkpt lat="45.50562" lon="6.60518">
        <ele>1616</ele>
        <time>2008-01-27T08:53:49Z</time>
      </trkpt>
      <trkpt lat="45.50545" lon="6.60525">
        <ele>1621</ele>
        <time>2008-01-27T08:54:25Z</time>
      </trkpt>
      <trkpt lat="45.50528" lon="6.6053">
        <ele>1631</ele>
        <time>2008-01-27T08:55:09Z</time>
      </trkpt>
      <trkpt lat="45.50513" lon="6.60543">
        <ele>1640</ele>
        <time>2008-01-27T08:55:50Z</time>
      </trkpt>
      <trkpt lat="45.50518" lon="6.60567">
        <ele>1640</ele>
        <time>2008-01-27T08:57:28Z</time>
      </trkpt>
      <trkpt lat="45.50532" lon="6.60583">
        <ele>1644</ele>
        <time>2008-01-27T08:58:41Z</time>
      </trkpt>
      <trkpt lat="45.50545" lon="6.60598">
        <ele>1646</ele>
        <time>2008-01-27T08:59:19Z</time>
      </trkpt>
      <trkpt lat="45.50545" lon="6.60623">
        <ele>1654</ele>
        <time>2008-01-27T09:00:40Z</time>
      </trkpt>
      <trkpt lat="45.50528" lon="6.60632">
        <ele>1657</ele>
        <time>2008-01-27T09:01:24Z</time>
      </trkpt>
      <trkpt lat="45.50513" lon="6.60645">
        <ele>1664</ele>
        <time>2008-01-27T09:02:12Z</time>
      </trkpt>
      <trkpt lat="45.505" lon="6.60658">
        <ele>1670</ele>
        <time>2008-01-27T09:02:57Z</time>
      </trkpt>
      <trkpt lat="45.50492" lon="6.6068">
        <ele>1677</ele>
        <time>2008-01-27T09:04:07Z</time>
      </trkpt>
      <trkpt lat="45.50475" lon="6.60685">
        <ele>1680</ele>
        <time>2008-01-27T09:04:39Z</time>
      </trkpt>
      <trkpt lat="45.50458" lon="6.60693">
        <ele>1683</ele>
        <time>2008-01-27T09:05:12Z</time>
      </trkpt>
      <trkpt lat="45.50443" lon="6.60707">
        <ele>1687</ele>
        <time>2008-01-27T09:05:50Z</time>
      </trkpt>
      <trkpt lat="45.5043" lon="6.6072">
        <ele>1690</ele>
        <time>2008-01-27T09:06:26Z</time>
      </trkpt>
      <trkpt lat="45.50428" lon="6.60745">
        <ele>1698</ele>
        <time>2008-01-27T09:07:25Z</time>
      </trkpt>
      <trkpt lat="45.50417" lon="6.60763">
        <ele>1702</ele>
        <time>2008-01-27T09:08:01Z</time>
      </trkpt>
      <trkpt lat="45.5041" lon="6.60787">
        <ele>1717</ele>
        <time>2008-01-27T09:09:01Z</time>
      </trkpt>
      <trkpt lat="45.50398" lon="6.60805">
        <ele>1723</ele>
        <time>2008-01-27T09:10:04Z</time>
      </trkpt>
      <trkpt lat="45.50383" lon="6.60817">
        <ele>1723</ele>
        <time>2008-01-27T09:11:16Z</time>
      </trkpt>
      <trkpt lat="45.5037" lon="6.60833">
        <ele>1732</ele>
        <time>2008-01-27T09:12:15Z</time>
      </trkpt>
      <trkpt lat="45.50377" lon="6.60857">
        <ele>1754</ele>
        <time>2008-01-27T09:13:41Z</time>
      </trkpt>
      <trkpt lat="45.5038" lon="6.60882">
        <ele>1760</ele>
        <time>2008-01-27T09:14:36Z</time>
      </trkpt>
      <trkpt lat="45.50365" lon="6.60892">
        <ele>1762</ele>
        <time>2008-01-27T09:15:32Z</time>
      </trkpt>
      <trkpt lat="45.50348" lon="6.60895">
        <ele>1775</ele>
        <time>2008-01-27T09:16:25Z</time>
      </trkpt>
      <trkpt lat="45.50333" lon="6.60905">
        <ele>1775</ele>
        <time>2008-01-27T09:16:59Z</time>
      </trkpt>
      <trkpt lat="45.50317" lon="6.60912">
        <ele>1778</ele>
        <time>2008-01-27T09:17:35Z</time>
      </trkpt>
      <trkpt lat="45.50302" lon="6.60925">
        <ele>1782</ele>
        <time>2008-01-27T09:18:13Z</time>
      </trkpt>
      <trkpt lat="45.5029" lon="6.60942">
        <ele>1786</ele>
        <time>2008-01-27T09:18:46Z</time>
      </trkpt>
      <trkpt lat="45.50283" lon="6.60965">
        <ele>1803</ele>
        <time>2008-01-27T09:19:48Z</time>
      </trkpt>
      <trkpt lat="45.5027" lon="6.6098">
        <ele>1802</ele>
        <time>2008-01-27T09:20:28Z</time>
      </trkpt>
      <trkpt lat="45.50257" lon="6.60993">
        <ele>1802</ele>
        <time>2008-01-27T09:21:13Z</time>
      </trkpt>
      <trkpt lat="45.5026" lon="6.61018">
        <ele>1806</ele>
        <time>2008-01-27T09:22:09Z</time>
      </trkpt>
      <trkpt lat="45.50258" lon="6.61043">
        <ele>1807</ele>
        <time>2008-01-27T09:22:31Z</time>
      </trkpt>
      <trkpt lat="45.50255" lon="6.61068">
        <ele>1808</ele>
        <time>2008-01-27T09:22:55Z</time>
      </trkpt>
      <trkpt lat="45.50252" lon="6.61093">
        <ele>1810</ele>
        <time>2008-01-27T09:23:22Z</time>
      </trkpt>
      <trkpt lat="45.50248" lon="6.61118">
        <ele>1815</ele>
        <time>2008-01-27T09:23:56Z</time>
      </trkpt>
      <trkpt lat="45.50237" lon="6.61137">
        <ele>1821</ele>
        <time>2008-01-27T09:24:34Z</time>
      </trkpt>
      <trkpt lat="45.5023" lon="6.6116">
        <ele>1826</ele>
        <time>2008-01-27T09:25:16Z</time>
      </trkpt>
      <trkpt lat="45.50233" lon="6.61185">
        <ele>1833</ele>
        <time>2008-01-27T09:25:59Z</time>
      </trkpt>
      <trkpt lat="45.50227" lon="6.61208">
        <ele>1840</ele>
        <time>2008-01-27T09:27:03Z</time>
      </trkpt>
      <trkpt lat="45.50213" lon="6.61225">
        <ele>1845</ele>
        <time>2008-01-27T09:27:39Z</time>
      </trkpt>
      <trkpt lat="45.50205" lon="6.61247">
        <ele>1850</ele>
        <time>2008-01-27T09:28:18Z</time>
      </trkpt>
      <trkpt lat="45.50188" lon="6.61247">
        <ele>1854</ele>
        <time>2008-01-27T09:28:50Z</time>
      </trkpt>
      <trkpt lat="45.50172" lon="6.61248">
        <ele>1858</ele>
        <time>2008-01-27T09:29:26Z</time>
      </trkpt>
      <trkpt lat="45.50157" lon="6.61257">
        <ele>1863</ele>
        <time>2008-01-27T09:30:00Z</time>
      </trkpt>
      <trkpt lat="45.50142" lon="6.61267">
        <ele>1867</ele>
        <time>2008-01-27T09:30:35Z</time>
      </trkpt>
      <trkpt lat="45.50127" lon="6.61278">
        <ele>1871</ele>
        <time>2008-01-27T09:31:11Z</time>
      </trkpt>
      <trkpt lat="45.5011" lon="6.61283">
        <ele>1875</ele>
        <time>2008-01-27T09:31:47Z</time>
      </trkpt>
      <trkpt lat="45.501" lon="6.61303">
        <ele>1879</ele>
        <time>2008-01-27T09:32:23Z</time>
      </trkpt>
      <trkpt lat="45.50098" lon="6.61328">
        <ele>1882</ele>
        <time>2008-01-27T09:32:56Z</time>
      </trkpt>
      <trkpt lat="45.50088" lon="6.61348">
        <ele>1887</ele>
        <time>2008-01-27T09:33:34Z</time>
      </trkpt>
      <trkpt lat="45.50073" lon="6.61362">
        <ele>1893</ele>
        <time>2008-01-27T09:34:14Z</time>
      </trkpt>
      <trkpt lat="45.50062" lon="6.6138">
        <ele>1896</ele>
        <time>2008-01-27T09:34:48Z</time>
      </trkpt>
      <trkpt lat="45.50055" lon="6.61403">
        <ele>1901</ele>
        <time>2008-01-27T09:35:23Z</time>
      </trkpt>
      <trkpt lat="45.50052" lon="6.61428">
        <ele>1906</ele>
        <time>2008-01-27T09:36:03Z</time>
      </trkpt>
      <trkpt lat="45.50043" lon="6.6145">
        <ele>1911</ele>
        <time>2008-01-27T09:36:41Z</time>
      </trkpt>
      <trkpt lat="45.50027" lon="6.61457">
        <ele>1916</ele>
        <time>2008-01-27T09:37:17Z</time>
      </trkpt>
      <trkpt lat="45.5001" lon="6.61453">
        <ele>1921</ele>
        <time>2008-01-27T09:37:52Z</time>
      </trkpt>
      <trkpt lat="45.49993" lon="6.61452">
        <ele>1925</ele>
        <time>2008-01-27T09:38:30Z</time>
      </trkpt>
      <trkpt lat="45.49977" lon="6.61455">
        <ele>1930</ele>
        <time>2008-01-27T09:39:10Z</time>
      </trkpt>
      <trkpt lat="45.49978" lon="6.6148">
        <ele>1934</ele>
        <time>2008-01-27T09:39:59Z</time>
      </trkpt>
      <trkpt lat="45.49988" lon="6.615">
        <ele>1935</ele>
        <time>2008-01-27T09:40:23Z</time>
      </trkpt>
      <trkpt lat="45.49998" lon="6.6152">
        <ele>1937</ele>
        <time>2008-01-27T09:40:47Z</time>
      </trkpt>
      <trkpt lat="45.50057" lon="6.61387">
        <ele>1944</ele>
        <time>2008-01-24T09:40:57Z</time>
      </trkpt>
      <trkpt lat="45.50052" lon="6.6141">
        <ele>1949</ele>
        <time>2008-01-24T09:41:36Z</time>
      </trkpt>
      <trkpt lat="45.50048" lon="6.61435">
        <ele>1954</ele>
        <time>2008-01-24T09:42:12Z</time>
      </trkpt>
      <trkpt lat="45.50035" lon="6.6145">
        <ele>1959</ele>
        <time>2008-01-24T09:42:55Z</time>
      </trkpt>
      <trkpt lat="45.50018" lon="6.61452">
        <ele>1963</ele>
        <time>2008-01-24T09:43:33Z</time>
      </trkpt>
      <trkpt lat="45.50002" lon="6.61447">
        <ele>1968</ele>
        <time>2008-01-24T09:44:16Z</time>
      </trkpt>
      <trkpt lat="45.49985" lon="6.61448">
        <ele>1973</ele>
        <time>2008-01-24T09:45:00Z</time>
      </trkpt>
      <trkpt lat="45.4997" lon="6.61462">
        <ele>1979</ele>
        <time>2008-01-24T09:45:49Z</time>
      </trkpt>
      <trkpt lat="45.49978" lon="6.61482">
        <ele>1981</ele>
        <time>2008-01-24T09:46:15Z</time>
      </trkpt>
      <trkpt lat="45.49988" lon="6.61502">
        <ele>1982</ele>
        <time>2008-01-24T09:46:39Z</time>
      </trkpt>
      <trkpt lat="45.49997" lon="6.61523">
        <ele>1984</ele>
        <time>2008-01-24T09:47:06Z</time>
      </trkpt>
      <trkpt lat="45.5" lon="6.61547">
        <ele>1985</ele>
        <time>2008-01-24T09:47:32Z</time>
      </trkpt>
      <trkpt lat="45.49992" lon="6.61567">
        <ele>1986</ele>
        <time>2008-01-24T09:50:14Z</time>
      </trkpt>
      <trkpt lat="45.49977" lon="6.6158">
        <ele>1990</ele>
        <time>2008-01-24T09:50:48Z</time>
      </trkpt>
      <trkpt lat="45.49973" lon="6.61605">
        <ele>1999</ele>
        <time>2008-01-24T09:51:35Z</time>
      </trkpt>
      <trkpt lat="45.49983" lon="6.61623">
        <ele>1999</ele>
        <time>2008-01-24T09:52:09Z</time>
      </trkpt>
      <trkpt lat="45.49967" lon="6.6163">
        <ele>2007</ele>
        <time>2008-01-24T09:53:12Z</time>
      </trkpt>
      <trkpt lat="45.4995" lon="6.61628">
        <ele>2011</ele>
        <time>2008-01-24T09:53:42Z</time>
      </trkpt>
      <trkpt lat="45.49958" lon="6.6165">
        <ele>2014</ele>
        <time>2008-01-24T09:54:55Z</time>
      </trkpt>
      <trkpt lat="45.49972" lon="6.61667">
        <ele>2019</ele>
        <time>2008-01-24T09:55:27Z</time>
      </trkpt>
      <trkpt lat="45.49985" lon="6.61683">
        <ele>2023</ele>
        <time>2008-01-24T09:56:04Z</time>
      </trkpt>
      <trkpt lat="45.49993" lon="6.61705">
        <ele>2023</ele>
        <time>2008-01-24T09:56:40Z</time>
      </trkpt>
      <trkpt lat="45.50007" lon="6.6172">
        <ele>2024</ele>
        <time>2008-01-24T09:57:06Z</time>
      </trkpt>
      <trkpt lat="45.50018" lon="6.61738">
        <ele>2029</ele>
        <time>2008-01-24T09:57:35Z</time>
      </trkpt>
      <trkpt lat="45.50032" lon="6.61755">
        <ele>2027</ele>
        <time>2008-01-24T09:58:21Z</time>
      </trkpt>
      <trkpt lat="45.50043" lon="6.61773">
        <ele>2034</ele>
        <time>2008-01-24T09:58:54Z</time>
      </trkpt>
      <trkpt lat="45.50055" lon="6.6179">
        <ele>2038</ele>
        <time>2008-01-24T09:59:34Z</time>
      </trkpt>
      <trkpt lat="45.50067" lon="6.61808">
        <ele>2042</ele>
        <time>2008-01-24T10:00:02Z</time>
      </trkpt>
      <trkpt lat="45.5005" lon="6.61815">
        <ele>2052</ele>
        <time>2008-01-24T10:01:42Z</time>
      </trkpt>
      <trkpt lat="45.50033" lon="6.61815">
        <ele>2057</ele>
        <time>2008-01-24T10:02:28Z</time>
      </trkpt>
      <trkpt lat="45.50017" lon="6.61812">
        <ele>2067</ele>
        <time>2008-01-24T10:03:27Z</time>
      </trkpt>
      <trkpt lat="45.50002" lon="6.618">
        <ele>2070</ele>
        <time>2008-01-24T10:03:57Z</time>
      </trkpt>
      <trkpt lat="45.49987" lon="6.61792">
        <ele>2071</ele>
        <time>2008-01-24T10:04:23Z</time>
      </trkpt>
      <trkpt lat="45.49972" lon="6.6178">
        <ele>2075</ele>
        <time>2008-01-24T10:04:50Z</time>
      </trkpt>
      <trkpt lat="45.49955" lon="6.61772">
        <ele>2072</ele>
        <time>2008-01-24T10:05:14Z</time>
      </trkpt>
      <trkpt lat="45.49938" lon="6.61763">
        <ele>2072</ele>
        <time>2008-01-24T10:05:38Z</time>
      </trkpt>
      <trkpt lat="45.49923" lon="6.61755">
        <ele>2072</ele>
        <time>2008-01-24T10:06:00Z</time>
      </trkpt>
      <trkpt lat="45.49907" lon="6.61748">
        <ele>2069</ele>
        <time>2008-01-24T10:06:23Z</time>
      </trkpt>
      <trkpt lat="45.4989" lon="6.61745">
        <ele>2075</ele>
        <time>2008-01-24T10:06:51Z</time>
      </trkpt>
      <trkpt lat="45.49873" lon="6.61747">
        <ele>2078</ele>
        <time>2008-01-24T10:07:19Z</time>
      </trkpt>
      <trkpt lat="45.49857" lon="6.61743">
        <ele>2079</ele>
        <time>2008-01-24T10:07:44Z</time>
      </trkpt>
      <trkpt lat="45.4984" lon="6.61737">
        <ele>2081</ele>
        <time>2008-01-24T10:08:10Z</time>
      </trkpt>
      <trkpt lat="45.49823" lon="6.61733">
        <ele>2080</ele>
        <time>2008-01-24T10:08:34Z</time>
      </trkpt>
      <trkpt lat="45.49807" lon="6.61728">
        <ele>2088</ele>
        <time>2008-01-24T10:09:07Z</time>
      </trkpt>
      <trkpt lat="45.4979" lon="6.61727">
        <ele>2082</ele>
        <time>2008-01-24T10:10:20Z</time>
      </trkpt>
      <trkpt lat="45.49773" lon="6.61718">
        <ele>2087</ele>
        <time>2008-01-24T10:10:44Z</time>
      </trkpt>
      <trkpt lat="45.49757" lon="6.6171">
        <ele>2090</ele>
        <time>2008-01-24T10:11:08Z</time>
      </trkpt>
      <trkpt lat="45.4974" lon="6.61715">
        <ele>2092</ele>
        <time>2008-01-24T10:11:41Z</time>
      </trkpt>
      <trkpt lat="45.49723" lon="6.61715">
        <ele>2094</ele>
        <time>2008-01-24T10:12:13Z</time>
      </trkpt>
      <trkpt lat="45.49707" lon="6.61708">
        <ele>2097</ele>
        <time>2008-01-24T10:12:55Z</time>
      </trkpt>
      <trkpt lat="45.4969" lon="6.61703">
        <ele>2100</ele>
        <time>2008-01-24T10:13:30Z</time>
      </trkpt>
      <trkpt lat="45.49673" lon="6.61695">
        <ele>2105</ele>
        <time>2008-01-24T10:14:11Z</time>
      </trkpt>
      <trkpt lat="45.49657" lon="6.61698">
        <ele>2108</ele>
        <time>2008-01-24T10:14:45Z</time>
      </trkpt>
      <trkpt lat="45.4965" lon="6.61722">
        <ele>2118</ele>
        <time>2008-01-24T10:16:16Z</time>
      </trkpt>
      <trkpt lat="45.49633" lon="6.61722">
        <ele>2121</ele>
        <time>2008-01-24T10:16:53Z</time>
      </trkpt>
      <trkpt lat="45.49637" lon="6.61747">
        <ele>2129</ele>
        <time>2008-01-24T10:18:14Z</time>
      </trkpt>
      <trkpt lat="45.49628" lon="6.61767">
        <ele>2139</ele>
        <time>2008-01-24T10:19:13Z</time>
      </trkpt>
      <trkpt lat="45.49613" lon="6.6178">
        <ele>2142</ele>
        <time>2008-01-24T10:19:55Z</time>
      </trkpt>
      <trkpt lat="45.49602" lon="6.61798">
        <ele>2147</ele>
        <time>2008-01-24T10:20:46Z</time>
      </trkpt>
      <trkpt lat="45.49607" lon="6.61822">
        <ele>2151</ele>
        <time>2008-01-24T10:21:33Z</time>
      </trkpt>
      <trkpt lat="45.49617" lon="6.61842">
        <ele>2154</ele>
        <time>2008-01-24T10:29:25Z</time>
      </trkpt>
      <trkpt lat="45.4963" lon="6.61858">
        <ele>2159</ele>
        <time>2008-01-24T10:29:57Z</time>
      </trkpt>
      <trkpt lat="45.49637" lon="6.61882">
        <ele>2164</ele>
        <time>2008-01-24T10:30:34Z</time>
      </trkpt>
      <trkpt lat="45.49633" lon="6.61905">
        <ele>2167</ele>
        <time>2008-01-24T10:31:08Z</time>
      </trkpt>
      <trkpt lat="45.4963" lon="6.61928">
        <ele>2169</ele>
        <time>2008-01-24T10:31:33Z</time>
      </trkpt>
      <trkpt lat="45.49623" lon="6.61952">
        <ele>2173</ele>
        <time>2008-01-24T10:32:05Z</time>
      </trkpt>
      <trkpt lat="45.49627" lon="6.61975">
        <ele>2175</ele>
        <time>2008-01-24T10:32:31Z</time>
      </trkpt>
      <trkpt lat="45.49635" lon="6.61997">
        <ele>2179</ele>
        <time>2008-01-24T10:32:56Z</time>
      </trkpt>
      <trkpt lat="45.4964" lon="6.6202">
        <ele>2183</ele>
        <time>2008-01-24T10:33:26Z</time>
      </trkpt>
      <trkpt lat="45.4965" lon="6.62038">
        <ele>2185</ele>
        <time>2008-01-24T10:33:58Z</time>
      </trkpt>
      <trkpt lat="45.49657" lon="6.6206">
        <ele>2194</ele>
        <time>2008-01-24T10:34:39Z</time>
      </trkpt>
      <trkpt lat="45.49657" lon="6.62085">
        <ele>2196</ele>
        <time>2008-01-24T10:35:19Z</time>
      </trkpt>
      <trkpt lat="45.49647" lon="6.62105">
        <ele>2197</ele>
        <time>2008-01-24T10:35:52Z</time>
      </trkpt>
      <trkpt lat="45.49637" lon="6.62125">
        <ele>2200</ele>
        <time>2008-01-24T10:36:24Z</time>
      </trkpt>
      <trkpt lat="45.49625" lon="6.62143">
        <ele>2204</ele>
        <time>2008-01-24T10:36:58Z</time>
      </trkpt>
      <trkpt lat="45.49613" lon="6.6216">
        <ele>2207</ele>
        <time>2008-01-24T10:37:29Z</time>
      </trkpt>
      <trkpt lat="45.496" lon="6.62175">
        <ele>2210</ele>
        <time>2008-01-24T10:38:03Z</time>
      </trkpt>
      <trkpt lat="45.49588" lon="6.62193">
        <ele>2216</ele>
        <time>2008-01-24T10:38:53Z</time>
      </trkpt>
      <trkpt lat="45.49582" lon="6.62217">
        <ele>2221</ele>
        <time>2008-01-24T10:39:34Z</time>
      </trkpt>
      <trkpt lat="45.4958" lon="6.62242">
        <ele>2226</ele>
        <time>2008-01-24T10:40:16Z</time>
      </trkpt>
      <trkpt lat="45.49578" lon="6.62267">
        <ele>2233</ele>
        <time>2008-01-24T10:41:01Z</time>
      </trkpt>
      <trkpt lat="45.49577" lon="6.62292">
        <ele>2238</ele>
        <time>2008-01-24T10:42:00Z</time>
      </trkpt>
      <trkpt lat="45.4957" lon="6.62315">
        <ele>2241</ele>
        <time>2008-01-24T10:42:28Z</time>
      </trkpt>
      <trkpt lat="45.49565" lon="6.62338">
        <ele>2238</ele>
        <time>2008-01-24T10:42:46Z</time>
      </trkpt>
      <trkpt lat="45.49558" lon="6.62362">
        <ele>2241</ele>
        <time>2008-01-24T10:43:12Z</time>
      </trkpt>
      <trkpt lat="45.49552" lon="6.62385">
        <ele>2241</ele>
        <time>2008-01-24T10:43:41Z</time>
      </trkpt>
      <trkpt lat="45.49543" lon="6.62407">
        <ele>2240</ele>
        <time>2008-01-24T10:44:03Z</time>
      </trkpt>
      <trkpt lat="45.49538" lon="6.6243">
        <ele>2244</ele>
        <time>2008-01-24T10:44:35Z</time>
      </trkpt>
      <trkpt lat="45.49537" lon="6.62453">
        <ele>2248</ele>
        <time>2008-01-24T10:45:10Z</time>
      </trkpt>
      <trkpt lat="45.49537" lon="6.62478">
        <ele>2250</ele>
        <time>2008-01-24T10:45:48Z</time>
      </trkpt>
      <trkpt lat="45.49532" lon="6.62502">
        <ele>2253</ele>
        <time>2008-01-24T10:46:25Z</time>
      </trkpt>
      <trkpt lat="45.49523" lon="6.62523">
        <ele>2256</ele>
        <time>2008-01-24T10:46:55Z</time>
      </trkpt>
      <trkpt lat="45.49512" lon="6.6254">
        <ele>2258</ele>
        <time>2008-01-24T10:47:25Z</time>
      </trkpt>
      <trkpt lat="45.49507" lon="6.62563">
        <ele>2262</ele>
        <time>2008-01-24T10:48:02Z</time>
      </trkpt>
      <trkpt lat="45.49502" lon="6.62587">
        <ele>2266</ele>
        <time>2008-01-24T10:48:38Z</time>
      </trkpt>
      <trkpt lat="45.495" lon="6.62612">
        <ele>2268</ele>
        <time>2008-01-24T10:49:13Z</time>
      </trkpt>
      <trkpt lat="45.49498" lon="6.62637">
        <ele>2272</ele>
        <time>2008-01-24T10:49:49Z</time>
      </trkpt>
      <trkpt lat="45.49483" lon="6.6265">
        <ele>2281</ele>
        <time>2008-01-24T10:51:18Z</time>
      </trkpt>
      <trkpt lat="45.49488" lon="6.62673">
        <ele>2283</ele>
        <time>2008-01-24T10:51:54Z</time>
      </trkpt>
      <trkpt lat="45.49495" lon="6.62697">
        <ele>2285</ele>
        <time>2008-01-24T10:52:35Z</time>
      </trkpt>
      <trkpt lat="45.49505" lon="6.62717">
        <ele>2291</ele>
        <time>2008-01-24T10:53:10Z</time>
      </trkpt>
      <trkpt lat="45.49512" lon="6.6274">
        <ele>2294</ele>
        <time>2008-01-24T10:53:52Z</time>
      </trkpt>
      <trkpt lat="45.49518" lon="6.62763">
        <ele>2297</ele>
        <time>2008-01-24T10:54:30Z</time>
      </trkpt>
      <trkpt lat="45.49502" lon="6.62768">
        <ele>2308</ele>
        <time>2008-01-24T10:55:56Z</time>
      </trkpt>
      <trkpt lat="45.49488" lon="6.62785">
        <ele>2310</ele>
        <time>2008-01-24T10:56:46Z</time>
      </trkpt>
      <trkpt lat="45.4949" lon="6.62808">
        <ele>2311</ele>
        <time>2008-01-24T10:57:12Z</time>
      </trkpt>
      <trkpt lat="45.49492" lon="6.62833">
        <ele>2311</ele>
        <time>2008-01-24T10:57:29Z</time>
      </trkpt>
      <trkpt lat="45.49487" lon="6.62857">
        <ele>2311</ele>
        <time>2008-01-24T10:57:53Z</time>
      </trkpt>
      <trkpt lat="45.4948" lon="6.62878">
        <ele>2314</ele>
        <time>2008-01-24T10:58:25Z</time>
      </trkpt>
      <trkpt lat="45.49467" lon="6.62895">
        <ele>2317</ele>
        <time>2008-01-24T10:59:00Z</time>
      </trkpt>
      <trkpt lat="45.49463" lon="6.6292">
        <ele>2321</ele>
        <time>2008-01-24T11:06:23Z</time>
      </trkpt>
      <trkpt lat="45.4947" lon="6.62943">
        <ele>2324</ele>
        <time>2008-01-24T11:07:01Z</time>
      </trkpt>
      <trkpt lat="45.49462" lon="6.62965">
        <ele>2329</ele>
        <time>2008-01-24T11:08:00Z</time>
      </trkpt>
      <trkpt lat="45.49473" lon="6.62983">
        <ele>2336</ele>
        <time>2008-01-24T11:08:48Z</time>
      </trkpt>
      <trkpt lat="45.49483" lon="6.63003">
        <ele>2337</ele>
        <time>2008-01-24T11:09:33Z</time>
      </trkpt>
      <trkpt lat="45.4948" lon="6.63028">
        <ele>2348</ele>
        <time>2008-01-24T11:11:24Z</time>
      </trkpt>
      <trkpt lat="45.49483" lon="6.63052">
        <ele>2356</ele>
        <time>2008-01-24T11:12:11Z</time>
      </trkpt>
      <trkpt lat="45.49487" lon="6.63077">
        <ele>2362</ele>
        <time>2008-01-24T11:12:55Z</time>
      </trkpt>
      <trkpt lat="45.49492" lon="6.631">
        <ele>2366</ele>
        <time>2008-01-24T11:13:36Z</time>
      </trkpt>
      <trkpt lat="45.495" lon="6.63122">
        <ele>2367</ele>
        <time>2008-01-24T11:14:14Z</time>
      </trkpt>
      <trkpt lat="45.49512" lon="6.63138">
        <ele>2372</ele>
        <time>2008-01-24T11:14:49Z</time>
      </trkpt>
      <trkpt lat="45.4952" lon="6.6316">
        <ele>2376</ele>
        <time>2008-01-24T11:15:23Z</time>
      </trkpt>
      <trkpt lat="45.49522" lon="6.63185">
        <ele>2375</ele>
        <time>2008-01-24T11:15:51Z</time>
      </trkpt>
      <trkpt lat="45.49523" lon="6.6321">
        <ele>2374</ele>
        <time>2008-01-24T11:16:15Z</time>
      </trkpt>
      <trkpt lat="45.49523" lon="6.63235">
        <ele>2377</ele>
        <time>2008-01-24T11:16:40Z</time>
      </trkpt>
      <trkpt lat="45.49522" lon="6.6326">
        <ele>2378</ele>
        <time>2008-01-24T11:17:14Z</time>
      </trkpt>
      <trkpt lat="45.49512" lon="6.6328">
        <ele>2385</ele>
        <time>2008-01-24T11:18:03Z</time>
      </trkpt>
      <trkpt lat="45.49498" lon="6.63297">
        <ele>2389</ele>
        <time>2008-01-24T11:18:55Z</time>
      </trkpt>
      <trkpt lat="45.49485" lon="6.63313">
        <ele>2392</ele>
        <time>2008-01-24T11:19:46Z</time>
      </trkpt>
      <trkpt lat="45.49487" lon="6.63338">
        <ele>2396</ele>
        <time>2008-01-24T11:20:40Z</time>
      </trkpt>
      <trkpt lat="45.49503" lon="6.63345">
        <ele>2402</ele>
        <time>2008-01-24T11:21:21Z</time>
      </trkpt>
      <trkpt lat="45.4952" lon="6.63348">
        <ele>2407</ele>
        <time>2008-01-24T11:22:05Z</time>
      </trkpt>
      <trkpt lat="45.49533" lon="6.63365">
        <ele>2413</ele>
        <time>2008-01-24T11:23:30Z</time>
      </trkpt>
      <trkpt lat="45.4955" lon="6.63373">
        <ele>2421</ele>
        <time>2008-01-24T11:24:17Z</time>
      </trkpt>
      <trkpt lat="45.49567" lon="6.63382">
        <ele>2426</ele>
        <time>2008-01-24T11:25:07Z</time>
      </trkpt>
      <trkpt lat="45.49577" lon="6.63402">
        <ele>2434</ele>
        <time>2008-01-24T11:25:52Z</time>
      </trkpt>
      <trkpt lat="45.49568" lon="6.63422">
        <ele>2438</ele>
        <time>2008-01-24T11:26:32Z</time>
      </trkpt>
      <trkpt lat="45.4956" lon="6.63443">
        <ele>2442</ele>
        <time>2008-01-24T11:27:15Z</time>
      </trkpt>
      <trkpt lat="45.4955" lon="6.63463">
        <ele>2445</ele>
        <time>2008-01-24T11:27:59Z</time>
      </trkpt>
      <trkpt lat="45.49565" lon="6.63475">
        <ele>2447</ele>
        <time>2008-01-24T11:28:56Z</time>
      </trkpt>
      <trkpt lat="45.49582" lon="6.63483">
        <ele>2452</ele>
        <time>2008-01-24T11:29:34Z</time>
      </trkpt>
      <trkpt lat="45.49597" lon="6.63493">
        <ele>2454</ele>
        <time>2008-01-24T11:30:11Z</time>
      </trkpt>
      <trkpt lat="45.49583" lon="6.63507">
        <ele>2459</ele>
        <time>2008-01-24T11:31:17Z</time>
      </trkpt>
      <trkpt lat="45.49568" lon="6.6352">
        <ele>2462</ele>
        <time>2008-01-24T11:31:58Z</time>
      </trkpt>
      <trkpt lat="45.4958" lon="6.63538">
        <ele>2470</ele>
        <time>2008-01-24T11:33:05Z</time>
      </trkpt>
      <trkpt lat="45.49565" lon="6.6355">
        <ele>2474</ele>
        <time>2008-01-24T11:34:15Z</time>
      </trkpt>
      <trkpt lat="45.49548" lon="6.63558">
        <ele>2476</ele>
        <time>2008-01-24T11:35:00Z</time>
      </trkpt>
      <trkpt lat="45.49552" lon="6.63583">
        <ele>2488</ele>
        <time>2008-01-24T11:36:06Z</time>
      </trkpt>
      <trkpt lat="45.49542" lon="6.63603">
        <ele>2493</ele>
        <time>2008-01-24T11:37:27Z</time>
      </trkpt>
      <trkpt lat="45.49528" lon="6.63618">
        <ele>2499</ele>
        <time>2008-01-24T11:38:12Z</time>
      </trkpt>
      <trkpt lat="45.49528" lon="6.63643">
        <ele>2507</ele>
        <time>2008-01-24T11:39:06Z</time>
      </trkpt>
      <trkpt lat="45.49522" lon="6.63667">
        <ele>2510</ele>
        <time>2008-01-24T11:39:53Z</time>
      </trkpt>
      <trkpt lat="45.49515" lon="6.6369">
        <ele>2515</ele>
        <time>2008-01-24T11:40:31Z</time>
      </trkpt>
      <trkpt lat="45.49508" lon="6.63713">
        <ele>2520</ele>
        <time>2008-01-24T11:41:18Z</time>
      </trkpt>
      <trkpt lat="45.49503" lon="6.63737">
        <ele>2525</ele>
        <time>2008-01-24T11:42:02Z</time>
      </trkpt>
      <trkpt lat="45.49505" lon="6.63762">
        <ele>2532</ele>
        <time>2008-01-24T11:42:47Z</time>
      </trkpt>
      <trkpt lat="45.49492" lon="6.63778">
        <ele>2535</ele>
        <time>2008-01-24T11:44:01Z</time>
      </trkpt>
      <trkpt lat="45.49485" lon="6.638">
        <ele>2541</ele>
        <time>2008-01-24T11:44:44Z</time>
      </trkpt>
      <trkpt lat="45.49478" lon="6.63822">
        <ele>2546</ele>
        <time>2008-01-24T11:45:35Z</time>
      </trkpt>
      <trkpt lat="45.49473" lon="6.63845">
        <ele>2552</ele>
        <time>2008-01-24T11:46:25Z</time>
      </trkpt>
      <trkpt lat="45.49467" lon="6.63868">
        <ele>2556</ele>
        <time>2008-01-24T11:47:20Z</time>
      </trkpt>
      <trkpt lat="45.49458" lon="6.63888">
        <ele>2560</ele>
        <time>2008-01-24T11:48:06Z</time>
      </trkpt>
      <trkpt lat="45.49445" lon="6.63905">
        <ele>2565</ele>
        <time>2008-01-24T11:48:47Z</time>
      </trkpt>
      <trkpt lat="45.49455" lon="6.63923">
        <ele>2567</ele>
        <time>2008-01-24T11:49:17Z</time>
      </trkpt>
      <trkpt lat="45.49457" lon="6.63923">
        <ele>2556</ele>
        <time>2008-01-24T12:48:30Z</time>
      </trkpt>
      <trkpt lat="45.49457" lon="6.63898">
        <ele>2553</ele>
        <time>2008-01-24T12:52:35Z</time>
      </trkpt>
      <trkpt lat="45.49458" lon="6.63875">
        <ele>2548</ele>
        <time>2008-01-24T12:52:41Z</time>
      </trkpt>
      <trkpt lat="45.49452" lon="6.63853">
        <ele>2539</ele>
        <time>2008-01-24T12:52:52Z</time>
      </trkpt>
      <trkpt lat="45.4945" lon="6.63833">
        <ele>2532</ele>
        <time>2008-01-24T12:52:58Z</time>
      </trkpt>
      <trkpt lat="45.4946" lon="6.63815">
        <ele>2529</ele>
        <time>2008-01-24T12:53:02Z</time>
      </trkpt>
      <trkpt lat="45.49453" lon="6.63798">
        <ele>2520</ele>
        <time>2008-01-24T12:53:10Z</time>
      </trkpt>
      <trkpt lat="45.49447" lon="6.63775">
        <ele>2510</ele>
        <time>2008-01-24T12:53:18Z</time>
      </trkpt>
      <trkpt lat="45.49458" lon="6.6376">
        <ele>2507</ele>
        <time>2008-01-24T12:54:49Z</time>
      </trkpt>
      <trkpt lat="45.49455" lon="6.6374">
        <ele>2498</ele>
        <time>2008-01-24T12:54:55Z</time>
      </trkpt>
      <trkpt lat="45.49452" lon="6.6372">
        <ele>2488</ele>
        <time>2008-01-24T12:55:01Z</time>
      </trkpt>
      <trkpt lat="45.49447" lon="6.63697">
        <ele>2478</ele>
        <time>2008-01-24T12:55:07Z</time>
      </trkpt>
      <trkpt lat="45.49445" lon="6.63673">
        <ele>2473</ele>
        <time>2008-01-24T12:55:13Z</time>
      </trkpt>
      <trkpt lat="45.4944" lon="6.63653">
        <ele>2462</ele>
        <time>2008-01-24T12:55:19Z</time>
      </trkpt>
      <trkpt lat="45.49425" lon="6.63647">
        <ele>2460</ele>
        <time>2008-01-24T12:55:21Z</time>
      </trkpt>
      <trkpt lat="45.49432" lon="6.63623">
        <ele>2453</ele>
        <time>2008-01-24T12:55:27Z</time>
      </trkpt>
      <trkpt lat="45.49427" lon="6.63602">
        <ele>2446</ele>
        <time>2008-01-24T12:56:30Z</time>
      </trkpt>
      <trkpt lat="45.4943" lon="6.63577">
        <ele>2441</ele>
        <time>2008-01-24T12:56:34Z</time>
      </trkpt>
      <trkpt lat="45.49418" lon="6.63565">
        <ele>2434</ele>
        <time>2008-01-24T12:56:38Z</time>
      </trkpt>
      <trkpt lat="45.49423" lon="6.63552">
        <ele>2432</ele>
        <time>2008-01-24T12:56:40Z</time>
      </trkpt>
      <trkpt lat="45.49422" lon="6.63527">
        <ele>2427</ele>
        <time>2008-01-24T12:56:44Z</time>
      </trkpt>
      <trkpt lat="45.49425" lon="6.63512">
        <ele>2426</ele>
        <time>2008-01-24T12:56:46Z</time>
      </trkpt>
      <trkpt lat="45.49432" lon="6.63492">
        <ele>2426</ele>
        <time>2008-01-24T12:56:50Z</time>
      </trkpt>
      <trkpt lat="45.49443" lon="6.63475">
        <ele>2425</ele>
        <time>2008-01-24T12:56:56Z</time>
      </trkpt>
      <trkpt lat="45.49447" lon="6.63453">
        <ele>2419</ele>
        <time>2008-01-24T12:57:10Z</time>
      </trkpt>
      <trkpt lat="45.49443" lon="6.63428">
        <ele>2411</ele>
        <time>2008-01-24T12:57:16Z</time>
      </trkpt>
      <trkpt lat="45.49447" lon="6.63413">
        <ele>2405</ele>
        <time>2008-01-24T12:57:20Z</time>
      </trkpt>
      <trkpt lat="45.4945" lon="6.63392">
        <ele>2398</ele>
        <time>2008-01-24T12:57:24Z</time>
      </trkpt>
      <trkpt lat="45.4946" lon="6.63387">
        <ele>2396</ele>
        <time>2008-01-24T12:57:26Z</time>
      </trkpt>
      <trkpt lat="45.49473" lon="6.63382">
        <ele>2392</ele>
        <time>2008-01-24T12:59:44Z</time>
      </trkpt>
      <trkpt lat="45.49473" lon="6.63358">
        <ele>2388</ele>
        <time>2008-01-24T12:59:48Z</time>
      </trkpt>
      <trkpt lat="45.49465" lon="6.6335">
        <ele>2385</ele>
        <time>2008-01-24T12:59:50Z</time>
      </trkpt>
      <trkpt lat="45.49455" lon="6.63342">
        <ele>2384</ele>
        <time>2008-01-24T12:59:52Z</time>
      </trkpt>
      <trkpt lat="45.49452" lon="6.6332">
        <ele>2381</ele>
        <time>2008-01-24T13:00:00Z</time>
      </trkpt>
      <trkpt lat="45.4946" lon="6.63302">
        <ele>2378</ele>
        <time>2008-01-24T13:00:04Z</time>
      </trkpt>
      <trkpt lat="45.49472" lon="6.63295">
        <ele>2378</ele>
        <time>2008-01-24T13:00:06Z</time>
      </trkpt>
      <trkpt lat="45.49482" lon="6.63288">
        <ele>2378</ele>
        <time>2008-01-24T13:00:08Z</time>
      </trkpt>
      <trkpt lat="45.4949" lon="6.63285">
        <ele>2377</ele>
        <time>2008-01-24T13:00:10Z</time>
      </trkpt>
      <trkpt lat="45.495" lon="6.6328">
        <ele>2374</ele>
        <time>2008-01-24T13:00:12Z</time>
      </trkpt>
      <trkpt lat="45.49515" lon="6.63267">
        <ele>2371</ele>
        <time>2008-01-24T13:00:14Z</time>
      </trkpt>
      <trkpt lat="45.49522" lon="6.63248">
        <ele>2368</ele>
        <time>2008-01-24T13:00:16Z</time>
      </trkpt>
      <trkpt lat="45.49522" lon="6.63227">
        <ele>2367</ele>
        <time>2008-01-24T13:00:18Z</time>
      </trkpt>
      <trkpt lat="45.49518" lon="6.63202">
        <ele>2368</ele>
        <time>2008-01-24T13:00:22Z</time>
      </trkpt>
      <trkpt lat="45.4952" lon="6.63177">
        <ele>2367</ele>
        <time>2008-01-24T13:00:30Z</time>
      </trkpt>
      <trkpt lat="45.49518" lon="6.63153">
        <ele>2368</ele>
        <time>2008-01-24T13:00:38Z</time>
      </trkpt>
      <trkpt lat="45.49513" lon="6.6314">
        <ele>2366</ele>
        <time>2008-01-24T13:00:42Z</time>
      </trkpt>
      <trkpt lat="45.495" lon="6.63125">
        <ele>2365</ele>
        <time>2008-01-24T13:00:46Z</time>
      </trkpt>
      <trkpt lat="45.49488" lon="6.6311">
        <ele>2364</ele>
        <time>2008-01-24T13:00:50Z</time>
      </trkpt>
      <trkpt lat="45.49477" lon="6.63093">
        <ele>2364</ele>
        <time>2008-01-24T13:00:54Z</time>
      </trkpt>
      <trkpt lat="45.49468" lon="6.63078">
        <ele>2362</ele>
        <time>2008-01-24T13:00:58Z</time>
      </trkpt>
      <trkpt lat="45.4946" lon="6.63065">
        <ele>2361</ele>
        <time>2008-01-24T13:01:02Z</time>
      </trkpt>
      <trkpt lat="45.49448" lon="6.6305">
        <ele>2360</ele>
        <time>2008-01-24T13:01:06Z</time>
      </trkpt>
      <trkpt lat="45.4944" lon="6.63035">
        <ele>2359</ele>
        <time>2008-01-24T13:01:11Z</time>
      </trkpt>
      <trkpt lat="45.49442" lon="6.63012">
        <ele>2351</ele>
        <time>2008-01-24T13:01:19Z</time>
      </trkpt>
      <trkpt lat="45.49453" lon="6.62997">
        <ele>2339</ele>
        <time>2008-01-24T13:01:25Z</time>
      </trkpt>
      <trkpt lat="45.49458" lon="6.62978">
        <ele>2331</ele>
        <time>2008-01-24T13:01:29Z</time>
      </trkpt>
      <trkpt lat="45.49473" lon="6.6297">
        <ele>2328</ele>
        <time>2008-01-24T13:01:33Z</time>
      </trkpt>
      <trkpt lat="45.49485" lon="6.62958">
        <ele>2325</ele>
        <time>2008-01-24T13:01:41Z</time>
      </trkpt>
      <trkpt lat="45.49485" lon="6.62933">
        <ele>2322</ele>
        <time>2008-01-24T13:01:45Z</time>
      </trkpt>
      <trkpt lat="45.49485" lon="6.62908">
        <ele>2314</ele>
        <time>2008-01-24T13:01:49Z</time>
      </trkpt>
      <trkpt lat="45.49488" lon="6.62875">
        <ele>2311</ele>
        <time>2008-01-24T13:01:51Z</time>
      </trkpt>
      <trkpt lat="45.4949" lon="6.62852">
        <ele>2310</ele>
        <time>2008-01-24T13:01:53Z</time>
      </trkpt>
      <trkpt lat="45.49492" lon="6.6283">
        <ele>2309</ele>
        <time>2008-01-24T13:01:55Z</time>
      </trkpt>
      <trkpt lat="45.4949" lon="6.62807">
        <ele>2310</ele>
        <time>2008-01-24T13:02:01Z</time>
      </trkpt>
      <trkpt lat="45.49502" lon="6.6279">
        <ele>2312</ele>
        <time>2008-01-24T13:02:54Z</time>
      </trkpt>
      <trkpt lat="45.49513" lon="6.62772">
        <ele>2299</ele>
        <time>2008-01-24T13:03:00Z</time>
      </trkpt>
      <trkpt lat="45.4952" lon="6.62753">
        <ele>2290</ele>
        <time>2008-01-24T13:03:04Z</time>
      </trkpt>
      <trkpt lat="45.49528" lon="6.62737">
        <ele>2282</ele>
        <time>2008-01-24T13:03:08Z</time>
      </trkpt>
      <trkpt lat="45.49538" lon="6.6272">
        <ele>2273</ele>
        <time>2008-01-24T13:03:12Z</time>
      </trkpt>
      <trkpt lat="45.49543" lon="6.62712">
        <ele>2268</ele>
        <time>2008-01-24T13:03:14Z</time>
      </trkpt>
      <trkpt lat="45.49553" lon="6.62698">
        <ele>2265</ele>
        <time>2008-01-24T13:03:16Z</time>
      </trkpt>
      <trkpt lat="45.49565" lon="6.62685">
        <ele>2264</ele>
        <time>2008-01-24T13:03:18Z</time>
      </trkpt>
      <trkpt lat="45.4957" lon="6.62662">
        <ele>2267</ele>
        <time>2008-01-24T13:03:26Z</time>
      </trkpt>
      <trkpt lat="45.4957" lon="6.62637">
        <ele>2261</ele>
        <time>2008-01-24T13:07:14Z</time>
      </trkpt>
      <trkpt lat="45.49573" lon="6.62622">
        <ele>2257</ele>
        <time>2008-01-24T13:07:16Z</time>
      </trkpt>
      <trkpt lat="45.49575" lon="6.62598">
        <ele>2254</ele>
        <time>2008-01-24T13:07:18Z</time>
      </trkpt>
      <trkpt lat="45.49573" lon="6.62572">
        <ele>2251</ele>
        <time>2008-01-24T13:07:20Z</time>
      </trkpt>
      <trkpt lat="45.49572" lon="6.62547">
        <ele>2248</ele>
        <time>2008-01-24T13:07:22Z</time>
      </trkpt>
      <trkpt lat="45.4957" lon="6.6252">
        <ele>2246</ele>
        <time>2008-01-24T13:07:24Z</time>
      </trkpt>
      <trkpt lat="45.49568" lon="6.62493">
        <ele>2244</ele>
        <time>2008-01-24T13:07:27Z</time>
      </trkpt>
      <trkpt lat="45.4957" lon="6.6247">
        <ele>2244</ele>
        <time>2008-01-24T13:07:28Z</time>
      </trkpt>
      <trkpt lat="45.4957" lon="6.62448">
        <ele>2244</ele>
        <time>2008-01-24T13:07:30Z</time>
      </trkpt>
      <trkpt lat="45.4957" lon="6.62428">
        <ele>2241</ele>
        <time>2008-01-24T13:07:34Z</time>
      </trkpt>
      <trkpt lat="45.49568" lon="6.62382">
        <ele>2240</ele>
        <time>2008-01-24T13:07:37Z</time>
      </trkpt>
      <trkpt lat="45.49568" lon="6.62362">
        <ele>2238</ele>
        <time>2008-01-24T13:07:39Z</time>
      </trkpt>
      <trkpt lat="45.4957" lon="6.6234">
        <ele>2238</ele>
        <time>2008-01-24T13:07:41Z</time>
      </trkpt>
      <trkpt lat="45.49568" lon="6.62323">
        <ele>2237</ele>
        <time>2008-01-24T13:07:43Z</time>
      </trkpt>
      <trkpt lat="45.4957" lon="6.62303">
        <ele>2236</ele>
        <time>2008-01-24T13:07:47Z</time>
      </trkpt>
      <trkpt lat="45.4957" lon="6.62283">
        <ele>2233</ele>
        <time>2008-01-24T13:07:51Z</time>
      </trkpt>
      <trkpt lat="45.49578" lon="6.62263">
        <ele>2228</ele>
        <time>2008-01-24T13:07:55Z</time>
      </trkpt>
      <trkpt lat="45.49578" lon="6.6224">
        <ele>2222</ele>
        <time>2008-01-24T13:07:59Z</time>
      </trkpt>
      <trkpt lat="45.49582" lon="6.62223">
        <ele>2221</ele>
        <time>2008-01-24T13:08:01Z</time>
      </trkpt>
      <trkpt lat="45.49592" lon="6.62205">
        <ele>2219</ele>
        <time>2008-01-24T13:08:07Z</time>
      </trkpt>
      <trkpt lat="45.49602" lon="6.62187">
        <ele>2214</ele>
        <time>2008-01-24T13:08:11Z</time>
      </trkpt>
      <trkpt lat="45.49605" lon="6.62182">
        <ele>2210</ele>
        <time>2008-01-24T13:08:13Z</time>
      </trkpt>
      <trkpt lat="45.4962" lon="6.62163">
        <ele>2207</ele>
        <time>2008-01-24T13:08:15Z</time>
      </trkpt>
      <trkpt lat="45.49632" lon="6.6215">
        <ele>2205</ele>
        <time>2008-01-24T13:08:17Z</time>
      </trkpt>
      <trkpt lat="45.49643" lon="6.62138">
        <ele>2203</ele>
        <time>2008-01-24T13:08:19Z</time>
      </trkpt>
      <trkpt lat="45.49653" lon="6.62132">
        <ele>2202</ele>
        <time>2008-01-24T13:08:21Z</time>
      </trkpt>
      <trkpt lat="45.49667" lon="6.62117">
        <ele>2201</ele>
        <time>2008-01-24T13:08:25Z</time>
      </trkpt>
      <trkpt lat="45.49662" lon="6.62098">
        <ele>2197</ele>
        <time>2008-01-24T13:08:29Z</time>
      </trkpt>
      <trkpt lat="45.49657" lon="6.62077">
        <ele>2192</ele>
        <time>2008-01-24T13:08:33Z</time>
      </trkpt>
      <trkpt lat="45.4965" lon="6.62053">
        <ele>2186</ele>
        <time>2008-01-24T13:08:37Z</time>
      </trkpt>
      <trkpt lat="45.49645" lon="6.62042">
        <ele>2183</ele>
        <time>2008-01-24T13:08:39Z</time>
      </trkpt>
      <trkpt lat="45.49642" lon="6.62027">
        <ele>2181</ele>
        <time>2008-01-24T13:08:41Z</time>
      </trkpt>
      <trkpt lat="45.49638" lon="6.62007">
        <ele>2179</ele>
        <time>2008-01-24T13:08:43Z</time>
      </trkpt>
      <trkpt lat="45.49635" lon="6.61988">
        <ele>2177</ele>
        <time>2008-01-24T13:08:45Z</time>
      </trkpt>
      <trkpt lat="45.49632" lon="6.61963">
        <ele>2173</ele>
        <time>2008-01-24T13:11:17Z</time>
      </trkpt>
      <trkpt lat="45.49633" lon="6.61945">
        <ele>2171</ele>
        <time>2008-01-24T13:11:31Z</time>
      </trkpt>
      <trkpt lat="45.49638" lon="6.61935">
        <ele>2170</ele>
        <time>2008-01-24T13:11:33Z</time>
      </trkpt>
      <trkpt lat="45.4964" lon="6.61912">
        <ele>2165</ele>
        <time>2008-01-24T13:11:37Z</time>
      </trkpt>
      <trkpt lat="45.49638" lon="6.61898">
        <ele>2162</ele>
        <time>2008-01-24T13:11:39Z</time>
      </trkpt>
      <trkpt lat="45.49635" lon="6.61883">
        <ele>2160</ele>
        <time>2008-01-24T13:11:41Z</time>
      </trkpt>
      <trkpt lat="45.49632" lon="6.61872">
        <ele>2158</ele>
        <time>2008-01-24T13:11:43Z</time>
      </trkpt>
      <trkpt lat="45.49627" lon="6.6186">
        <ele>2155</ele>
        <time>2008-01-24T13:11:45Z</time>
      </trkpt>
      <trkpt lat="45.49622" lon="6.6185">
        <ele>2153</ele>
        <time>2008-01-24T13:11:47Z</time>
      </trkpt>
      <trkpt lat="45.49617" lon="6.61835">
        <ele>2151</ele>
        <time>2008-01-24T13:11:49Z</time>
      </trkpt>
      <trkpt lat="45.49622" lon="6.61818">
        <ele>2147</ele>
        <time>2008-01-24T13:12:01Z</time>
      </trkpt>
      <trkpt lat="45.49627" lon="6.618">
        <ele>2142</ele>
        <time>2008-01-24T13:12:05Z</time>
      </trkpt>
      <trkpt lat="45.4963" lon="6.61778">
        <ele>2134</ele>
        <time>2008-01-24T13:12:10Z</time>
      </trkpt>
      <trkpt lat="45.49635" lon="6.61757">
        <ele>2128</ele>
        <time>2008-01-24T13:12:14Z</time>
      </trkpt>
      <trkpt lat="45.49637" lon="6.61737">
        <ele>2124</ele>
        <time>2008-01-24T13:12:52Z</time>
      </trkpt>
      <trkpt lat="45.4964" lon="6.61723">
        <ele>2118</ele>
        <time>2008-01-24T13:12:54Z</time>
      </trkpt>
      <trkpt lat="45.49648" lon="6.61702">
        <ele>2108</ele>
        <time>2008-01-24T13:12:58Z</time>
      </trkpt>
      <trkpt lat="45.49655" lon="6.6169">
        <ele>2102</ele>
        <time>2008-01-24T13:13:00Z</time>
      </trkpt>
      <trkpt lat="45.49662" lon="6.61677">
        <ele>2097</ele>
        <time>2008-01-24T13:13:02Z</time>
      </trkpt>
      <trkpt lat="45.49673" lon="6.61673">
        <ele>2094</ele>
        <time>2008-01-24T13:13:04Z</time>
      </trkpt>
      <trkpt lat="45.49687" lon="6.61683">
        <ele>2092</ele>
        <time>2008-01-24T13:13:08Z</time>
      </trkpt>
      <trkpt lat="45.497" lon="6.61693">
        <ele>2092</ele>
        <time>2008-01-24T13:13:16Z</time>
      </trkpt>
      <trkpt lat="45.49715" lon="6.61703">
        <ele>2089</ele>
        <time>2008-01-24T13:13:38Z</time>
      </trkpt>
      <trkpt lat="45.4973" lon="6.61713">
        <ele>2088</ele>
        <time>2008-01-24T13:14:07Z</time>
      </trkpt>
      <trkpt lat="45.49732" lon="6.61688">
        <ele>2078</ele>
        <time>2008-01-24T13:14:35Z</time>
      </trkpt>
      <trkpt lat="45.49733" lon="6.61667">
        <ele>2069</ele>
        <time>2008-01-24T13:14:57Z</time>
      </trkpt>
      <trkpt lat="45.49745" lon="6.61652">
        <ele>2055</ele>
        <time>2008-01-24T13:15:42Z</time>
      </trkpt>
      <trkpt lat="45.49735" lon="6.61635">
        <ele>2048</ele>
        <time>2008-01-24T13:15:56Z</time>
      </trkpt>
      <trkpt lat="45.49735" lon="6.61612">
        <ele>2038</ele>
        <time>2008-01-24T13:16:08Z</time>
      </trkpt>
      <trkpt lat="45.49738" lon="6.6159">
        <ele>2027</ele>
        <time>2008-01-24T13:16:34Z</time>
      </trkpt>
      <trkpt lat="45.49747" lon="6.61568">
        <ele>2012</ele>
        <time>2008-01-24T13:16:43Z</time>
      </trkpt>
      <trkpt lat="45.4976" lon="6.61553">
        <ele>2002</ele>
        <time>2008-01-24T13:16:51Z</time>
      </trkpt>
      <trkpt lat="45.49773" lon="6.61558">
        <ele>1999</ele>
        <time>2008-01-24T13:16:55Z</time>
      </trkpt>
      <trkpt lat="45.49783" lon="6.61562">
        <ele>1996</ele>
        <time>2008-01-24T13:16:57Z</time>
      </trkpt>
      <trkpt lat="45.49793" lon="6.61562">
        <ele>1994</ele>
        <time>2008-01-24T13:16:59Z</time>
      </trkpt>
      <trkpt lat="45.49808" lon="6.61558">
        <ele>1990</ele>
        <time>2008-01-24T13:17:03Z</time>
      </trkpt>
      <trkpt lat="45.4982" lon="6.61555">
        <ele>1989</ele>
        <time>2008-01-24T13:17:07Z</time>
      </trkpt>
      <trkpt lat="45.49837" lon="6.61552">
        <ele>1987</ele>
        <time>2008-01-24T13:17:13Z</time>
      </trkpt>
      <trkpt lat="45.49848" lon="6.6155">
        <ele>1985</ele>
        <time>2008-01-24T13:17:17Z</time>
      </trkpt>
      <trkpt lat="45.49865" lon="6.61545">
        <ele>1985</ele>
        <time>2008-01-24T13:17:25Z</time>
      </trkpt>
      <trkpt lat="45.49882" lon="6.61545">
        <ele>1983</ele>
        <time>2008-01-24T13:17:33Z</time>
      </trkpt>
      <trkpt lat="45.49898" lon="6.61537">
        <ele>1980</ele>
        <time>2008-01-24T13:17:43Z</time>
      </trkpt>
      <trkpt lat="45.4991" lon="6.61533">
        <ele>1979</ele>
        <time>2008-01-24T13:17:47Z</time>
      </trkpt>
      <trkpt lat="45.49923" lon="6.61517">
        <ele>1978</ele>
        <time>2008-01-24T13:17:53Z</time>
      </trkpt>
      <trkpt lat="45.49938" lon="6.61503">
        <ele>1976</ele>
        <time>2008-01-24T13:18:05Z</time>
      </trkpt>
      <trkpt lat="45.49947" lon="6.61483">
        <ele>1977</ele>
        <time>2008-01-24T13:18:40Z</time>
      </trkpt>
      <trkpt lat="45.49958" lon="6.61467">
        <ele>1976</ele>
        <time>2008-01-24T13:20:41Z</time>
      </trkpt>
      <trkpt lat="45.49975" lon="6.61463">
        <ele>1977</ele>
        <time>2008-01-24T13:27:19Z</time>
      </trkpt>
      <trkpt lat="45.49988" lon="6.6146">
        <ele>1970</ele>
        <time>2008-01-24T13:27:25Z</time>
      </trkpt>
      <trkpt lat="45.49997" lon="6.61453">
        <ele>1963</ele>
        <time>2008-01-24T13:27:27Z</time>
      </trkpt>
      <trkpt lat="45.50007" lon="6.61445">
        <ele>1957</ele>
        <time>2008-01-24T13:27:29Z</time>
      </trkpt>
      <trkpt lat="45.50017" lon="6.61437">
        <ele>1951</ele>
        <time>2008-01-24T13:27:31Z</time>
      </trkpt>
      <trkpt lat="45.50025" lon="6.61425">
        <ele>1946</ele>
        <time>2008-01-24T13:27:33Z</time>
      </trkpt>
      <trkpt lat="45.50035" lon="6.61412">
        <ele>1942</ele>
        <time>2008-01-24T13:27:35Z</time>
      </trkpt>
      <trkpt lat="45.50043" lon="6.614">
        <ele>1939</ele>
        <time>2008-01-24T13:27:38Z</time>
      </trkpt>
      <trkpt lat="45.50052" lon="6.61387">
        <ele>1935</ele>
        <time>2008-01-24T13:27:40Z</time>
      </trkpt>
      <trkpt lat="45.50058" lon="6.6137">
        <ele>1932</ele>
        <time>2008-01-24T13:27:42Z</time>
      </trkpt>
      <trkpt lat="45.50067" lon="6.61357">
        <ele>1929</ele>
        <time>2008-01-24T13:27:44Z</time>
      </trkpt>
      <trkpt lat="45.50077" lon="6.61347">
        <ele>1926</ele>
        <time>2008-01-24T13:27:46Z</time>
      </trkpt>
      <trkpt lat="45.50088" lon="6.61338">
        <ele>1923</ele>
        <time>2008-01-24T13:27:48Z</time>
      </trkpt>
      <trkpt lat="45.50098" lon="6.61327">
        <ele>1921</ele>
        <time>2008-01-24T13:27:50Z</time>
      </trkpt>
      <trkpt lat="45.50107" lon="6.61313">
        <ele>1919</ele>
        <time>2008-01-24T13:27:52Z</time>
      </trkpt>
      <trkpt lat="45.50113" lon="6.61302">
        <ele>1916</ele>
        <time>2008-01-24T13:27:54Z</time>
      </trkpt>
      <trkpt lat="45.50122" lon="6.61288">
        <ele>1913</ele>
        <time>2008-01-24T13:27:56Z</time>
      </trkpt>
      <trkpt lat="45.5013" lon="6.61275">
        <ele>1910</ele>
        <time>2008-01-24T13:27:58Z</time>
      </trkpt>
      <trkpt lat="45.5014" lon="6.61265">
        <ele>1906</ele>
        <time>2008-01-24T13:28:00Z</time>
      </trkpt>
      <trkpt lat="45.5015" lon="6.61258">
        <ele>1902</ele>
        <time>2008-01-24T13:28:02Z</time>
      </trkpt>
      <trkpt lat="45.50162" lon="6.61253">
        <ele>1899</ele>
        <time>2008-01-24T13:28:04Z</time>
      </trkpt>
      <trkpt lat="45.50173" lon="6.61248">
        <ele>1895</ele>
        <time>2008-01-24T13:28:06Z</time>
      </trkpt>
      <trkpt lat="45.50185" lon="6.61248">
        <ele>1892</ele>
        <time>2008-01-24T13:28:08Z</time>
      </trkpt>
      <trkpt lat="45.50198" lon="6.61248">
        <ele>1889</ele>
        <time>2008-01-24T13:28:10Z</time>
      </trkpt>
      <trkpt lat="45.50212" lon="6.6124">
        <ele>1890</ele>
        <time>2008-01-24T13:29:27Z</time>
      </trkpt>
      <trkpt lat="45.50215" lon="6.6123">
        <ele>1886</ele>
        <time>2008-01-24T13:29:29Z</time>
      </trkpt>
      <trkpt lat="45.50217" lon="6.61213">
        <ele>1881</ele>
        <time>2008-01-24T13:29:31Z</time>
      </trkpt>
      <trkpt lat="45.5022" lon="6.61197">
        <ele>1878</ele>
        <time>2008-01-24T13:29:33Z</time>
      </trkpt>
      <trkpt lat="45.50223" lon="6.61172">
        <ele>1869</ele>
        <time>2008-01-24T13:29:37Z</time>
      </trkpt>
      <trkpt lat="45.50227" lon="6.61162">
        <ele>1863</ele>
        <time>2008-01-24T13:29:39Z</time>
      </trkpt>
      <trkpt lat="45.50232" lon="6.61135">
        <ele>1861</ele>
        <time>2008-01-24T13:29:41Z</time>
      </trkpt>
      <trkpt lat="45.50233" lon="6.61118">
        <ele>1859</ele>
        <time>2008-01-24T13:29:43Z</time>
      </trkpt>
      <trkpt lat="45.50237" lon="6.61105">
        <ele>1855</ele>
        <time>2008-01-24T13:29:45Z</time>
      </trkpt>
      <trkpt lat="45.50242" lon="6.6109">
        <ele>1852</ele>
        <time>2008-01-24T13:29:47Z</time>
      </trkpt>
      <trkpt lat="45.50248" lon="6.61073">
        <ele>1850</ele>
        <time>2008-01-24T13:29:50Z</time>
      </trkpt>
      <trkpt lat="45.50253" lon="6.61057">
        <ele>1849</ele>
        <time>2008-01-24T13:29:51Z</time>
      </trkpt>
      <trkpt lat="45.50258" lon="6.61042">
        <ele>1848</ele>
        <time>2008-01-24T13:29:53Z</time>
      </trkpt>
      <trkpt lat="45.50262" lon="6.61028">
        <ele>1847</ele>
        <time>2008-01-24T13:29:55Z</time>
      </trkpt>
      <trkpt lat="45.50272" lon="6.61008">
        <ele>1847</ele>
        <time>2008-01-24T13:31:04Z</time>
      </trkpt>
      <trkpt lat="45.50288" lon="6.61002">
        <ele>1848</ele>
        <time>2008-01-24T13:31:26Z</time>
      </trkpt>
      <trkpt lat="45.50305" lon="6.61003">
        <ele>1846</ele>
        <time>2008-01-24T13:31:44Z</time>
      </trkpt>
      <trkpt lat="45.5032" lon="6.61008">
        <ele>1849</ele>
        <time>2008-01-24T13:31:59Z</time>
      </trkpt>
      <trkpt lat="45.50335" lon="6.61017">
        <ele>1848</ele>
        <time>2008-01-24T13:32:13Z</time>
      </trkpt>
      <trkpt lat="45.50352" lon="6.61023">
        <ele>1846</ele>
        <time>2008-01-24T13:32:29Z</time>
      </trkpt>
      <trkpt lat="45.50367" lon="6.61032">
        <ele>1847</ele>
        <time>2008-01-24T13:32:43Z</time>
      </trkpt>
      <trkpt lat="45.50383" lon="6.61033">
        <ele>1845</ele>
        <time>2008-01-24T13:33:07Z</time>
      </trkpt>
      <trkpt lat="45.50395" lon="6.61027">
        <ele>1845</ele>
        <time>2008-01-24T13:33:18Z</time>
      </trkpt>
      <trkpt lat="45.50408" lon="6.61018">
        <ele>1844</ele>
        <time>2008-01-24T13:33:24Z</time>
      </trkpt>
      <trkpt lat="45.50422" lon="6.61005">
        <ele>1849</ele>
        <time>2008-01-24T13:33:34Z</time>
      </trkpt>
      <trkpt lat="45.50437" lon="6.60993">
        <ele>1848</ele>
        <time>2008-01-24T13:34:04Z</time>
      </trkpt>
      <trkpt lat="45.50452" lon="6.60988">
        <ele>1845</ele>
        <time>2008-01-24T13:34:14Z</time>
      </trkpt>
      <trkpt lat="45.50468" lon="6.6098">
        <ele>1847</ele>
        <time>2008-01-24T13:34:24Z</time>
      </trkpt>
      <trkpt lat="45.50482" lon="6.60967">
        <ele>1847</ele>
        <time>2008-01-24T13:34:37Z</time>
      </trkpt>
      <trkpt lat="45.50497" lon="6.60953">
        <ele>1845</ele>
        <time>2008-01-24T13:34:51Z</time>
      </trkpt>
      <trkpt lat="45.50508" lon="6.60942">
        <ele>1844</ele>
        <time>2008-01-24T13:35:03Z</time>
      </trkpt>
      <trkpt lat="45.50523" lon="6.60932">
        <ele>1844</ele>
        <time>2008-01-24T13:35:11Z</time>
      </trkpt>
      <trkpt lat="45.50538" lon="6.60928">
        <ele>1843</ele>
        <time>2008-01-24T13:35:19Z</time>
      </trkpt>
      <trkpt lat="45.50552" lon="6.60927">
        <ele>1842</ele>
        <time>2008-01-24T13:35:25Z</time>
      </trkpt>
      <trkpt lat="45.50567" lon="6.60922">
        <ele>1839</ele>
        <time>2008-01-24T13:35:31Z</time>
      </trkpt>
      <trkpt lat="45.5058" lon="6.60918">
        <ele>1838</ele>
        <time>2008-01-24T13:35:37Z</time>
      </trkpt>
      <trkpt lat="45.50593" lon="6.60915">
        <ele>1837</ele>
        <time>2008-01-24T13:35:43Z</time>
      </trkpt>
      <trkpt lat="45.5061" lon="6.60912">
        <ele>1835</ele>
        <time>2008-01-24T13:35:49Z</time>
      </trkpt>
      <trkpt lat="45.50623" lon="6.60912">
        <ele>1833</ele>
        <time>2008-01-24T13:35:54Z</time>
      </trkpt>
      <trkpt lat="45.50635" lon="6.60913">
        <ele>1832</ele>
        <time>2008-01-24T13:35:58Z</time>
      </trkpt>
      <trkpt lat="45.5065" lon="6.60912">
        <ele>1832</ele>
        <time>2008-01-24T13:36:04Z</time>
      </trkpt>
      <trkpt lat="45.50665" lon="6.6091">
        <ele>1832</ele>
        <time>2008-01-24T13:36:12Z</time>
      </trkpt>
      <trkpt lat="45.50682" lon="6.6091">
        <ele>1833</ele>
        <time>2008-01-24T13:36:26Z</time>
      </trkpt>
      <trkpt lat="45.50697" lon="6.60915">
        <ele>1831</ele>
        <time>2008-01-24T13:36:36Z</time>
      </trkpt>
      <trkpt lat="45.50713" lon="6.60918">
        <ele>1831</ele>
        <time>2008-01-24T13:36:48Z</time>
      </trkpt>
      <trkpt lat="45.5073" lon="6.60922">
        <ele>1835</ele>
        <time>2008-01-24T13:37:02Z</time>
      </trkpt>
      <trkpt lat="45.50747" lon="6.60928">
        <ele>1833</ele>
        <time>2008-01-24T13:37:23Z</time>
      </trkpt>
      <trkpt lat="45.50763" lon="6.60937">
        <ele>1832</ele>
        <time>2008-01-24T13:37:37Z</time>
      </trkpt>
      <trkpt lat="45.50777" lon="6.60945">
        <ele>1833</ele>
        <time>2008-01-24T13:37:49Z</time>
      </trkpt>
      <trkpt lat="45.50792" lon="6.60955">
        <ele>1832</ele>
        <time>2008-01-24T13:38:03Z</time>
      </trkpt>
      <trkpt lat="45.50807" lon="6.60968">
        <ele>1831</ele>
        <time>2008-01-24T13:38:23Z</time>
      </trkpt>
      <trkpt lat="45.5082" lon="6.60985">
        <ele>1831</ele>
        <time>2008-01-24T13:38:37Z</time>
      </trkpt>
      <trkpt lat="45.5083" lon="6.61003">
        <ele>1831</ele>
        <time>2008-01-24T13:40:00Z</time>
      </trkpt>
      <trkpt lat="45.50838" lon="6.61023">
        <ele>1830</ele>
        <time>2008-01-24T13:40:08Z</time>
      </trkpt>
      <trkpt lat="45.50852" lon="6.61035">
        <ele>1831</ele>
        <time>2008-01-24T13:40:19Z</time>
      </trkpt>
      <trkpt lat="45.50865" lon="6.61045">
        <ele>1829</ele>
        <time>2008-01-24T13:40:27Z</time>
      </trkpt>
      <trkpt lat="45.50878" lon="6.6106">
        <ele>1829</ele>
        <time>2008-01-24T13:40:35Z</time>
      </trkpt>
      <trkpt lat="45.50888" lon="6.61072">
        <ele>1828</ele>
        <time>2008-01-24T13:40:41Z</time>
      </trkpt>
      <trkpt lat="45.509" lon="6.6109">
        <ele>1825</ele>
        <time>2008-01-24T13:40:47Z</time>
      </trkpt>
      <trkpt lat="45.50908" lon="6.61105">
        <ele>1823</ele>
        <time>2008-01-24T13:40:53Z</time>
      </trkpt>
      <trkpt lat="45.50912" lon="6.61127">
        <ele>1822</ele>
        <time>2008-01-24T13:40:59Z</time>
      </trkpt>
      <trkpt lat="45.50905" lon="6.6115">
        <ele>1820</ele>
        <time>2008-01-24T13:41:07Z</time>
      </trkpt>
      <trkpt lat="45.50895" lon="6.61168">
        <ele>1818</ele>
        <time>2008-01-24T13:41:15Z</time>
      </trkpt>
      <trkpt lat="45.50883" lon="6.61178">
        <ele>1816</ele>
        <time>2008-01-24T13:41:21Z</time>
      </trkpt>
      <trkpt lat="45.50868" lon="6.61188">
        <ele>1815</ele>
        <time>2008-01-24T13:41:27Z</time>
      </trkpt>
      <trkpt lat="45.50853" lon="6.61195">
        <ele>1813</ele>
        <time>2008-01-24T13:41:31Z</time>
      </trkpt>
      <trkpt lat="45.5084" lon="6.61208">
        <ele>1812</ele>
        <time>2008-01-24T13:41:35Z</time>
      </trkpt>
      <trkpt lat="45.50833" lon="6.61218">
        <ele>1812</ele>
        <time>2008-01-24T13:41:37Z</time>
      </trkpt>
      <trkpt lat="45.50825" lon="6.61238">
        <ele>1811</ele>
        <time>2008-01-24T13:41:41Z</time>
      </trkpt>
      <trkpt lat="45.50815" lon="6.61258">
        <ele>1810</ele>
        <time>2008-01-24T13:41:45Z</time>
      </trkpt>
      <trkpt lat="45.5081" lon="6.6127">
        <ele>1809</ele>
        <time>2008-01-24T13:41:48Z</time>
      </trkpt>
      <trkpt lat="45.50805" lon="6.61282">
        <ele>1808</ele>
        <time>2008-01-24T13:41:50Z</time>
      </trkpt>
      <trkpt lat="45.508" lon="6.61295">
        <ele>1808</ele>
        <time>2008-01-24T13:41:52Z</time>
      </trkpt>
      <trkpt lat="45.50797" lon="6.61308">
        <ele>1807</ele>
        <time>2008-01-24T13:41:54Z</time>
      </trkpt>
      <trkpt lat="45.50795" lon="6.61323">
        <ele>1807</ele>
        <time>2008-01-24T13:41:56Z</time>
      </trkpt>
      <trkpt lat="45.50798" lon="6.61338">
        <ele>1806</ele>
        <time>2008-01-24T13:41:58Z</time>
      </trkpt>
      <trkpt lat="45.50803" lon="6.61352">
        <ele>1805</ele>
        <time>2008-01-24T13:42:00Z</time>
      </trkpt>
      <trkpt lat="45.50812" lon="6.61362">
        <ele>1805</ele>
        <time>2008-01-24T13:42:02Z</time>
      </trkpt>
      <trkpt lat="45.5082" lon="6.61372">
        <ele>1804</ele>
        <time>2008-01-24T13:42:04Z</time>
      </trkpt>
      <trkpt lat="45.50835" lon="6.61383">
        <ele>1815</ele>
        <time>2008-01-24T13:42:26Z</time>
      </trkpt>
      <trkpt lat="45.50848" lon="6.61398">
        <ele>1798</ele>
        <time>2008-01-24T13:42:44Z</time>
      </trkpt>
      <trkpt lat="45.50858" lon="6.61413">
        <ele>1819</ele>
        <time>2008-01-24T13:43:17Z</time>
      </trkpt>
      <trkpt lat="45.50872" lon="6.61428">
        <ele>1813</ele>
        <time>2008-01-24T13:43:23Z</time>
      </trkpt>
      <trkpt lat="45.50885" lon="6.61445">
        <ele>1808</ele>
        <time>2008-01-24T13:43:27Z</time>
      </trkpt>
      <trkpt lat="45.50892" lon="6.61453">
        <ele>1804</ele>
        <time>2008-01-24T13:43:29Z</time>
      </trkpt>
      <trkpt lat="45.50898" lon="6.61463">
        <ele>1801</ele>
        <time>2008-01-24T13:43:31Z</time>
      </trkpt>
      <trkpt lat="45.50907" lon="6.61475">
        <ele>1797</ele>
        <time>2008-01-24T13:43:33Z</time>
      </trkpt>
      <trkpt lat="45.50913" lon="6.61488">
        <ele>1793</ele>
        <time>2008-01-24T13:43:35Z</time>
      </trkpt>
      <trkpt lat="45.5092" lon="6.61502">
        <ele>1789</ele>
        <time>2008-01-24T13:43:37Z</time>
      </trkpt>
      <trkpt lat="45.50927" lon="6.61513">
        <ele>1787</ele>
        <time>2008-01-24T13:43:39Z</time>
      </trkpt>
      <trkpt lat="45.50935" lon="6.6152">
        <ele>1785</ele>
        <time>2008-01-24T13:43:41Z</time>
      </trkpt>
      <trkpt lat="45.50947" lon="6.6153">
        <ele>1784</ele>
        <time>2008-01-24T13:43:43Z</time>
      </trkpt>
      <trkpt lat="45.50962" lon="6.61542">
        <ele>1782</ele>
        <time>2008-01-24T13:43:47Z</time>
      </trkpt>
      <trkpt lat="45.5097" lon="6.6155">
        <ele>1780</ele>
        <time>2008-01-24T13:43:49Z</time>
      </trkpt>
      <trkpt lat="45.5098" lon="6.61558">
        <ele>1779</ele>
        <time>2008-01-24T13:43:51Z</time>
      </trkpt>
      <trkpt lat="45.50988" lon="6.61568">
        <ele>1778</ele>
        <time>2008-01-24T13:43:53Z</time>
      </trkpt>
      <trkpt lat="45.50997" lon="6.61577">
        <ele>1776</ele>
        <time>2008-01-24T13:43:55Z</time>
      </trkpt>
      <trkpt lat="45.51007" lon="6.61588">
        <ele>1775</ele>
        <time>2008-01-24T13:43:57Z</time>
      </trkpt>
      <trkpt lat="45.51017" lon="6.616">
        <ele>1773</ele>
        <time>2008-01-24T13:43:59Z</time>
      </trkpt>
      <trkpt lat="45.51027" lon="6.6161">
        <ele>1771</ele>
        <time>2008-01-24T13:44:01Z</time>
      </trkpt>
      <trkpt lat="45.51035" lon="6.6162">
        <ele>1769</ele>
        <time>2008-01-24T13:44:03Z</time>
      </trkpt>
      <trkpt lat="45.51043" lon="6.61628">
        <ele>1768</ele>
        <time>2008-01-24T13:44:05Z</time>
      </trkpt>
      <trkpt lat="45.51058" lon="6.61642">
        <ele>1766</ele>
        <time>2008-01-24T13:44:09Z</time>
      </trkpt>
      <trkpt lat="45.51072" lon="6.61655">
        <ele>1765</ele>
        <time>2008-01-24T13:44:13Z</time>
      </trkpt>
      <trkpt lat="45.5108" lon="6.61667">
        <ele>1763</ele>
        <time>2008-01-24T13:44:17Z</time>
      </trkpt>
      <trkpt lat="45.51088" lon="6.61678">
        <ele>1762</ele>
        <time>2008-01-24T13:44:21Z</time>
      </trkpt>
      <trkpt lat="45.51098" lon="6.61695">
        <ele>1760</ele>
        <time>2008-01-24T13:44:25Z</time>
      </trkpt>
      <trkpt lat="45.51103" lon="6.61675">
        <ele>1756</ele>
        <time>2008-01-24T13:44:35Z</time>
      </trkpt>
      <trkpt lat="45.51095" lon="6.61657">
        <ele>1754</ele>
        <time>2008-01-24T13:44:39Z</time>
      </trkpt>
      <trkpt lat="45.51087" lon="6.6164">
        <ele>1753</ele>
        <time>2008-01-24T13:44:43Z</time>
      </trkpt>
      <trkpt lat="45.51082" lon="6.61622">
        <ele>1753</ele>
        <time>2008-01-24T13:44:48Z</time>
      </trkpt>
      <trkpt lat="45.51075" lon="6.61605">
        <ele>1752</ele>
        <time>2008-01-24T13:44:52Z</time>
      </trkpt>
      <trkpt lat="45.51067" lon="6.61583">
        <ele>1752</ele>
        <time>2008-01-24T13:44:58Z</time>
      </trkpt>
      <trkpt lat="45.5106" lon="6.61563">
        <ele>1754</ele>
        <time>2008-01-24T13:45:04Z</time>
      </trkpt>
      <trkpt lat="45.51077" lon="6.61567">
        <ele>1749</ele>
        <time>2008-01-24T13:45:14Z</time>
      </trkpt>
      <trkpt lat="45.51083" lon="6.61577">
        <ele>1747</ele>
        <time>2008-01-24T13:45:16Z</time>
      </trkpt>
      <trkpt lat="45.51092" lon="6.61587">
        <ele>1745</ele>
        <time>2008-01-24T13:45:18Z</time>
      </trkpt>
      <trkpt lat="45.511" lon="6.61597">
        <ele>1743</ele>
        <time>2008-01-24T13:45:20Z</time>
      </trkpt>
      <trkpt lat="45.51113" lon="6.6161">
        <ele>1740</ele>
        <time>2008-01-24T13:45:24Z</time>
      </trkpt>
      <trkpt lat="45.51125" lon="6.61627">
        <ele>1739</ele>
        <time>2008-01-24T13:45:28Z</time>
      </trkpt>
      <trkpt lat="45.51135" lon="6.61642">
        <ele>1740</ele>
        <time>2008-01-24T13:45:32Z</time>
      </trkpt>
      <trkpt lat="45.51147" lon="6.61657">
        <ele>1738</ele>
        <time>2008-01-24T13:45:36Z</time>
      </trkpt>
      <trkpt lat="45.51155" lon="6.61673">
        <ele>1737</ele>
        <time>2008-01-24T13:45:40Z</time>
      </trkpt>
      <trkpt lat="45.51163" lon="6.61688">
        <ele>1734</ele>
        <time>2008-01-24T13:45:44Z</time>
      </trkpt>
      <trkpt lat="45.51175" lon="6.61707">
        <ele>1734</ele>
        <time>2008-01-24T13:45:50Z</time>
      </trkpt>
      <trkpt lat="45.51185" lon="6.61717">
        <ele>1733</ele>
        <time>2008-01-24T13:45:54Z</time>
      </trkpt>
      <trkpt lat="45.51195" lon="6.61728">
        <ele>1732</ele>
        <time>2008-01-24T13:45:58Z</time>
      </trkpt>
      <trkpt lat="45.51205" lon="6.61738">
        <ele>1732</ele>
        <time>2008-01-24T13:46:02Z</time>
      </trkpt>
      <trkpt lat="45.51215" lon="6.61752">
        <ele>1730</ele>
        <time>2008-01-24T13:46:06Z</time>
      </trkpt>
      <trkpt lat="45.51225" lon="6.61765">
        <ele>1727</ele>
        <time>2008-01-24T13:46:10Z</time>
      </trkpt>
      <trkpt lat="45.51235" lon="6.61783">
        <ele>1724</ele>
        <time>2008-01-24T13:46:14Z</time>
      </trkpt>
      <trkpt lat="45.51245" lon="6.61802">
        <ele>1721</ele>
        <time>2008-01-24T13:46:18Z</time>
      </trkpt>
      <trkpt lat="45.51255" lon="6.61818">
        <ele>1720</ele>
        <time>2008-01-24T13:46:22Z</time>
      </trkpt>
      <trkpt lat="45.51263" lon="6.61832">
        <ele>1718</ele>
        <time>2008-01-24T13:46:26Z</time>
      </trkpt>
      <trkpt lat="45.51272" lon="6.61847">
        <ele>1715</ele>
        <time>2008-01-24T13:46:31Z</time>
      </trkpt>
      <trkpt lat="45.51282" lon="6.61863">
        <ele>1713</ele>
        <time>2008-01-24T13:46:35Z</time>
      </trkpt>
      <trkpt lat="45.5129" lon="6.6188">
        <ele>1712</ele>
        <time>2008-01-24T13:46:39Z</time>
      </trkpt>
      <trkpt lat="45.51297" lon="6.61897">
        <ele>1712</ele>
        <time>2008-01-24T13:46:43Z</time>
      </trkpt>
      <trkpt lat="45.51303" lon="6.61915">
        <ele>1712</ele>
        <time>2008-01-24T13:46:47Z</time>
      </trkpt>
      <trkpt lat="45.51307" lon="6.61925">
        <ele>1711</ele>
        <time>2008-01-24T13:46:49Z</time>
      </trkpt>
      <trkpt lat="45.51315" lon="6.61942">
        <ele>1710</ele>
        <time>2008-01-24T13:46:53Z</time>
      </trkpt>
      <trkpt lat="45.51322" lon="6.61955">
        <ele>1710</ele>
        <time>2008-01-24T13:46:55Z</time>
      </trkpt>
      <trkpt lat="45.51332" lon="6.6197">
        <ele>1708</ele>
        <time>2008-01-24T13:46:59Z</time>
      </trkpt>
      <trkpt lat="45.5134" lon="6.61988">
        <ele>1705</ele>
        <time>2008-01-24T13:47:03Z</time>
      </trkpt>
      <trkpt lat="45.51347" lon="6.62008">
        <ele>1703</ele>
        <time>2008-01-24T13:47:07Z</time>
      </trkpt>
      <trkpt lat="45.51352" lon="6.6203">
        <ele>1702</ele>
        <time>2008-01-24T13:47:11Z</time>
      </trkpt>
      <trkpt lat="45.51348" lon="6.62053">
        <ele>1700</ele>
        <time>2008-01-24T13:47:15Z</time>
      </trkpt>
      <trkpt lat="45.51343" lon="6.62063">
        <ele>1699</ele>
        <time>2008-01-24T13:47:17Z</time>
      </trkpt>
      <trkpt lat="45.5134" lon="6.62077">
        <ele>1698</ele>
        <time>2008-01-24T13:47:19Z</time>
      </trkpt>
      <trkpt lat="45.51342" lon="6.6209">
        <ele>1698</ele>
        <time>2008-01-24T13:47:21Z</time>
      </trkpt>
      <trkpt lat="45.5135" lon="6.62112">
        <ele>1698</ele>
        <time>2008-01-24T13:47:25Z</time>
      </trkpt>
      <trkpt lat="45.51353" lon="6.62125">
        <ele>1698</ele>
        <time>2008-01-24T13:47:27Z</time>
      </trkpt>
      <trkpt lat="45.51355" lon="6.62138">
        <ele>1698</ele>
        <time>2008-01-24T13:47:29Z</time>
      </trkpt>
      <trkpt lat="45.51355" lon="6.62153">
        <ele>1697</ele>
        <time>2008-01-24T13:47:31Z</time>
      </trkpt>
      <trkpt lat="45.51358" lon="6.62168">
        <ele>1698</ele>
        <time>2008-01-24T13:47:33Z</time>
      </trkpt>
      <trkpt lat="45.51362" lon="6.62193">
        <ele>1698</ele>
        <time>2008-01-24T13:47:37Z</time>
      </trkpt>
      <trkpt lat="45.51365" lon="6.62217">
        <ele>1697</ele>
        <time>2008-01-24T13:47:41Z</time>
      </trkpt>
      <trkpt lat="45.51368" lon="6.62238">
        <ele>1695</ele>
        <time>2008-01-24T13:47:45Z</time>
      </trkpt>
      <trkpt lat="45.51383" lon="6.62238">
        <ele>1688</ele>
        <time>2008-01-24T13:47:51Z</time>
      </trkpt>
      <trkpt lat="45.51387" lon="6.62225">
        <ele>1686</ele>
        <time>2008-01-24T13:47:53Z</time>
      </trkpt>
      <trkpt lat="45.5139" lon="6.6221">
        <ele>1684</ele>
        <time>2008-01-24T13:47:55Z</time>
      </trkpt>
      <trkpt lat="45.51393" lon="6.62197">
        <ele>1682</ele>
        <time>2008-01-24T13:47:57Z</time>
      </trkpt>
      <trkpt lat="45.51395" lon="6.62183">
        <ele>1679</ele>
        <time>2008-01-24T13:47:59Z</time>
      </trkpt>
      <trkpt lat="45.51398" lon="6.6217">
        <ele>1677</ele>
        <time>2008-01-24T13:48:01Z</time>
      </trkpt>
      <trkpt lat="45.514" lon="6.62157">
        <ele>1676</ele>
        <time>2008-01-24T13:48:04Z</time>
      </trkpt>
      <trkpt lat="45.51402" lon="6.62142">
        <ele>1675</ele>
        <time>2008-01-24T13:48:06Z</time>
      </trkpt>
      <trkpt lat="45.51405" lon="6.62127">
        <ele>1674</ele>
        <time>2008-01-24T13:48:08Z</time>
      </trkpt>
      <trkpt lat="45.51407" lon="6.6211">
        <ele>1673</ele>
        <time>2008-01-24T13:48:10Z</time>
      </trkpt>
      <trkpt lat="45.5141" lon="6.62097">
        <ele>1671</ele>
        <time>2008-01-24T13:48:12Z</time>
      </trkpt>
      <trkpt lat="45.51417" lon="6.62075">
        <ele>1670</ele>
        <time>2008-01-24T13:48:16Z</time>
      </trkpt>
      <trkpt lat="45.5143" lon="6.62065">
        <ele>1669</ele>
        <time>2008-01-24T13:48:22Z</time>
      </trkpt>
      <trkpt lat="45.51437" lon="6.62055">
        <ele>1669</ele>
        <time>2008-01-24T13:48:26Z</time>
      </trkpt>
      <trkpt lat="45.5144" lon="6.62037">
        <ele>1670</ele>
        <time>2008-01-24T13:48:30Z</time>
      </trkpt>
      <trkpt lat="45.51442" lon="6.62013">
        <ele>1672</ele>
        <time>2008-01-24T13:48:34Z</time>
      </trkpt>
      <trkpt lat="45.51442" lon="6.61992">
        <ele>1673</ele>
        <time>2008-01-24T13:48:38Z</time>
      </trkpt>
      <trkpt lat="45.51438" lon="6.61972">
        <ele>1672</ele>
        <time>2008-01-24T13:48:42Z</time>
      </trkpt>
      <trkpt lat="45.51437" lon="6.61952">
        <ele>1671</ele>
        <time>2008-01-24T13:48:46Z</time>
      </trkpt>
      <trkpt lat="45.51432" lon="6.61932">
        <ele>1669</ele>
        <time>2008-01-24T13:48:50Z</time>
      </trkpt>
      <trkpt lat="45.51428" lon="6.61912">
        <ele>1668</ele>
        <time>2008-01-24T13:48:54Z</time>
      </trkpt>
      <trkpt lat="45.51425" lon="6.61892">
        <ele>1665</ele>
        <time>2008-01-24T13:48:58Z</time>
      </trkpt>
      <trkpt lat="45.51423" lon="6.61872">
        <ele>1664</ele>
        <time>2008-01-24T13:49:02Z</time>
      </trkpt>
      <trkpt lat="45.51423" lon="6.61855">
        <ele>1662</ele>
        <time>2008-01-24T13:49:06Z</time>
      </trkpt>
      <trkpt lat="45.51425" lon="6.6183">
        <ele>1662</ele>
        <time>2008-01-24T13:49:12Z</time>
      </trkpt>
      <trkpt lat="45.51425" lon="6.6181">
        <ele>1663</ele>
        <time>2008-01-24T13:49:18Z</time>
      </trkpt>
      <trkpt lat="45.51425" lon="6.61788">
        <ele>1661</ele>
        <time>2008-01-24T13:49:24Z</time>
      </trkpt>
      <trkpt lat="45.51423" lon="6.61765">
        <ele>1661</ele>
        <time>2008-01-24T13:49:30Z</time>
      </trkpt>
      <trkpt lat="45.5142" lon="6.61742">
        <ele>1662</ele>
        <time>2008-01-24T13:49:36Z</time>
      </trkpt>
      <trkpt lat="45.51417" lon="6.61723">
        <ele>1659</ele>
        <time>2008-01-24T13:49:40Z</time>
      </trkpt>
      <trkpt lat="45.51413" lon="6.61703">
        <ele>1655</ele>
        <time>2008-01-24T13:49:45Z</time>
      </trkpt>
      <trkpt lat="45.5141" lon="6.61682">
        <ele>1654</ele>
        <time>2008-01-24T13:49:49Z</time>
      </trkpt>
      <trkpt lat="45.51408" lon="6.6166">
        <ele>1654</ele>
        <time>2008-01-24T13:49:53Z</time>
      </trkpt>
      <trkpt lat="45.51403" lon="6.61638">
        <ele>1654</ele>
        <time>2008-01-24T13:49:57Z</time>
      </trkpt>
      <trkpt lat="45.514" lon="6.61618">
        <ele>1653</ele>
        <time>2008-01-24T13:50:01Z</time>
      </trkpt>
      <trkpt lat="45.51397" lon="6.61602">
        <ele>1652</ele>
        <time>2008-01-24T13:50:03Z</time>
      </trkpt>
      <trkpt lat="45.51395" lon="6.6159">
        <ele>1650</ele>
        <time>2008-01-24T13:50:05Z</time>
      </trkpt>
      <trkpt lat="45.51392" lon="6.61577">
        <ele>1649</ele>
        <time>2008-01-24T13:50:07Z</time>
      </trkpt>
      <trkpt lat="45.51388" lon="6.61562">
        <ele>1648</ele>
        <time>2008-01-24T13:50:09Z</time>
      </trkpt>
      <trkpt lat="45.51387" lon="6.61548">
        <ele>1647</ele>
        <time>2008-01-24T13:50:11Z</time>
      </trkpt>
      <trkpt lat="45.51383" lon="6.61535">
        <ele>1646</ele>
        <time>2008-01-24T13:50:13Z</time>
      </trkpt>
      <trkpt lat="45.51378" lon="6.61512">
        <ele>1643</ele>
        <time>2008-01-24T13:50:17Z</time>
      </trkpt>
      <trkpt lat="45.51372" lon="6.61488">
        <ele>1639</ele>
        <time>2008-01-24T13:50:21Z</time>
      </trkpt>
      <trkpt lat="45.51383" lon="6.61473">
        <ele>1633</ele>
        <time>2008-01-24T13:50:29Z</time>
      </trkpt>
      <trkpt lat="45.51392" lon="6.61487">
        <ele>1631</ele>
        <time>2008-01-24T13:50:31Z</time>
      </trkpt>
      <trkpt lat="45.51398" lon="6.61498">
        <ele>1629</ele>
        <time>2008-01-24T13:50:33Z</time>
      </trkpt>
      <trkpt lat="45.51407" lon="6.61512">
        <ele>1627</ele>
        <time>2008-01-24T13:50:35Z</time>
      </trkpt>
      <trkpt lat="45.51413" lon="6.61523">
        <ele>1625</ele>
        <time>2008-01-24T13:50:37Z</time>
      </trkpt>
      <trkpt lat="45.5142" lon="6.61533">
        <ele>1624</ele>
        <time>2008-01-24T13:50:39Z</time>
      </trkpt>
      <trkpt lat="45.51427" lon="6.61543">
        <ele>1623</ele>
        <time>2008-01-24T13:50:41Z</time>
      </trkpt>
      <trkpt lat="45.51433" lon="6.61553">
        <ele>1622</ele>
        <time>2008-01-24T13:50:43Z</time>
      </trkpt>
      <trkpt lat="45.51438" lon="6.61565">
        <ele>1620</ele>
        <time>2008-01-24T13:50:45Z</time>
      </trkpt>
      <trkpt lat="45.51445" lon="6.61575">
        <ele>1619</ele>
        <time>2008-01-24T13:50:47Z</time>
      </trkpt>
      <trkpt lat="45.51452" lon="6.61585">
        <ele>1618</ele>
        <time>2008-01-24T13:50:49Z</time>
      </trkpt>
      <trkpt lat="45.51458" lon="6.61597">
        <ele>1616</ele>
        <time>2008-01-24T13:50:51Z</time>
      </trkpt>
      <trkpt lat="45.51465" lon="6.61607">
        <ele>1615</ele>
        <time>2008-01-24T13:50:53Z</time>
      </trkpt>
      <trkpt lat="45.5147" lon="6.61618">
        <ele>1614</ele>
        <time>2008-01-24T13:50:55Z</time>
      </trkpt>
      <trkpt lat="45.51477" lon="6.61628">
        <ele>1614</ele>
        <time>2008-01-24T13:50:57Z</time>
      </trkpt>
      <trkpt lat="45.51483" lon="6.6164">
        <ele>1612</ele>
        <time>2008-01-24T13:50:59Z</time>
      </trkpt>
      <trkpt lat="45.5149" lon="6.6165">
        <ele>1611</ele>
        <time>2008-01-24T13:51:01Z</time>
      </trkpt>
      <trkpt lat="45.51495" lon="6.61662">
        <ele>1610</ele>
        <time>2008-01-24T13:51:03Z</time>
      </trkpt>
      <trkpt lat="45.51507" lon="6.61678">
        <ele>1609</ele>
        <time>2008-01-24T13:51:07Z</time>
      </trkpt>
      <trkpt lat="45.5152" lon="6.61663">
        <ele>1609</ele>
        <time>2008-01-24T13:51:13Z</time>
      </trkpt>
      <trkpt lat="45.51518" lon="6.61638">
        <ele>1613</ele>
        <time>2008-01-24T13:53:09Z</time>
      </trkpt>
      <trkpt lat="45.51515" lon="6.61615">
        <ele>1612</ele>
        <time>2008-01-24T13:53:13Z</time>
      </trkpt>
      <trkpt lat="45.51512" lon="6.616">
        <ele>1610</ele>
        <time>2008-01-24T13:53:15Z</time>
      </trkpt>
      <trkpt lat="45.51508" lon="6.61585">
        <ele>1608</ele>
        <time>2008-01-24T13:53:17Z</time>
      </trkpt>
      <trkpt lat="45.51505" lon="6.61568">
        <ele>1605</ele>
        <time>2008-01-24T13:53:19Z</time>
      </trkpt>
      <trkpt lat="45.51502" lon="6.61552">
        <ele>1602</ele>
        <time>2008-01-24T13:53:21Z</time>
      </trkpt>
      <trkpt lat="45.51498" lon="6.61535">
        <ele>1600</ele>
        <time>2008-01-24T13:53:23Z</time>
      </trkpt>
      <trkpt lat="45.51495" lon="6.61518">
        <ele>1598</ele>
        <time>2008-01-24T13:53:25Z</time>
      </trkpt>
      <trkpt lat="45.51492" lon="6.615">
        <ele>1596</ele>
        <time>2008-01-24T13:53:27Z</time>
      </trkpt>
      <trkpt lat="45.51487" lon="6.61483">
        <ele>1595</ele>
        <time>2008-01-24T13:53:29Z</time>
      </trkpt>
      <trkpt lat="45.51485" lon="6.61465">
        <ele>1593</ele>
        <time>2008-01-24T13:53:31Z</time>
      </trkpt>
      <trkpt lat="45.51488" lon="6.61447">
        <ele>1592</ele>
        <time>2008-01-24T13:53:33Z</time>
      </trkpt>
      <trkpt lat="45.51493" lon="6.61432">
        <ele>1590</ele>
        <time>2008-01-24T13:53:35Z</time>
      </trkpt>
      <trkpt lat="45.51498" lon="6.61415">
        <ele>1587</ele>
        <time>2008-01-24T13:53:37Z</time>
      </trkpt>
      <trkpt lat="45.51503" lon="6.61398">
        <ele>1586</ele>
        <time>2008-01-24T13:53:39Z</time>
      </trkpt>
      <trkpt lat="45.51507" lon="6.61382">
        <ele>1585</ele>
        <time>2008-01-24T13:53:42Z</time>
      </trkpt>
      <trkpt lat="45.5151" lon="6.61367">
        <ele>1584</ele>
        <time>2008-01-24T13:53:44Z</time>
      </trkpt>
      <trkpt lat="45.51512" lon="6.6135">
        <ele>1584</ele>
        <time>2008-01-24T13:53:46Z</time>
      </trkpt>
      <trkpt lat="45.51515" lon="6.61337">
        <ele>1583</ele>
        <time>2008-01-24T13:53:48Z</time>
      </trkpt>
      <trkpt lat="45.51518" lon="6.61323">
        <ele>1583</ele>
        <time>2008-01-24T13:53:50Z</time>
      </trkpt>
      <trkpt lat="45.51523" lon="6.61302">
        <ele>1582</ele>
        <time>2008-01-24T13:53:54Z</time>
      </trkpt>
      <trkpt lat="45.51533" lon="6.61285">
        <ele>1581</ele>
        <time>2008-01-24T13:54:02Z</time>
      </trkpt>
      <trkpt lat="45.51547" lon="6.61273">
        <ele>1577</ele>
        <time>2008-01-24T13:54:12Z</time>
      </trkpt>
      <trkpt lat="45.51558" lon="6.61257">
        <ele>1579</ele>
        <time>2008-01-24T13:54:22Z</time>
      </trkpt>
      <trkpt lat="45.51558" lon="6.61238">
        <ele>1582</ele>
        <time>2008-01-24T13:54:28Z</time>
      </trkpt>
      <trkpt lat="45.51553" lon="6.61222">
        <ele>1580</ele>
        <time>2008-01-24T13:54:32Z</time>
      </trkpt>
      <trkpt lat="45.51548" lon="6.61205">
        <ele>1579</ele>
        <time>2008-01-24T13:54:36Z</time>
      </trkpt>
      <trkpt lat="45.51542" lon="6.61188">
        <ele>1578</ele>
        <time>2008-01-24T13:54:40Z</time>
      </trkpt>
      <trkpt lat="45.51533" lon="6.61175">
        <ele>1577</ele>
        <time>2008-01-24T13:54:44Z</time>
      </trkpt>
      <trkpt lat="45.51525" lon="6.6116">
        <ele>1575</ele>
        <time>2008-01-24T13:54:48Z</time>
      </trkpt>
      <trkpt lat="45.51518" lon="6.61147">
        <ele>1574</ele>
        <time>2008-01-24T13:54:52Z</time>
      </trkpt>
      <trkpt lat="45.51508" lon="6.61135">
        <ele>1574</ele>
        <time>2008-01-24T13:54:56Z</time>
      </trkpt>
      <trkpt lat="45.515" lon="6.61122">
        <ele>1573</ele>
        <time>2008-01-24T13:55:00Z</time>
      </trkpt>
      <trkpt lat="45.51492" lon="6.61108">
        <ele>1572</ele>
        <time>2008-01-24T13:55:04Z</time>
      </trkpt>
      <trkpt lat="45.51478" lon="6.61093">
        <ele>1570</ele>
        <time>2008-01-24T13:55:10Z</time>
      </trkpt>
      <trkpt lat="45.5147" lon="6.6108">
        <ele>1569</ele>
        <time>2008-01-24T13:55:14Z</time>
      </trkpt>
      <trkpt lat="45.51463" lon="6.61065">
        <ele>1569</ele>
        <time>2008-01-24T13:55:18Z</time>
      </trkpt>
      <trkpt lat="45.51457" lon="6.61052">
        <ele>1568</ele>
        <time>2008-01-24T13:55:23Z</time>
      </trkpt>
      <trkpt lat="45.51448" lon="6.61035">
        <ele>1566</ele>
        <time>2008-01-24T13:55:27Z</time>
      </trkpt>
      <trkpt lat="45.51442" lon="6.61018">
        <ele>1566</ele>
        <time>2008-01-24T13:55:31Z</time>
      </trkpt>
      <trkpt lat="45.5144" lon="6.60995">
        <ele>1566</ele>
        <time>2008-01-24T13:55:35Z</time>
      </trkpt>
      <trkpt lat="45.51445" lon="6.60978">
        <ele>1565</ele>
        <time>2008-01-24T13:55:39Z</time>
      </trkpt>
      <trkpt lat="45.5146" lon="6.60965">
        <ele>1564</ele>
        <time>2008-01-24T13:55:45Z</time>
      </trkpt>
      <trkpt lat="45.51477" lon="6.60962">
        <ele>1562</ele>
        <time>2008-01-24T13:55:51Z</time>
      </trkpt>
      <trkpt lat="45.51492" lon="6.60962">
        <ele>1561</ele>
        <time>2008-01-24T13:55:55Z</time>
      </trkpt>
      <trkpt lat="45.51507" lon="6.60965">
        <ele>1560</ele>
        <time>2008-01-24T13:55:59Z</time>
      </trkpt>
      <trkpt lat="45.5152" lon="6.60967">
        <ele>1560</ele>
        <time>2008-01-24T13:56:03Z</time>
      </trkpt>
      <trkpt lat="45.51537" lon="6.60967">
        <ele>1558</ele>
        <time>2008-01-24T13:56:09Z</time>
      </trkpt>
      <trkpt lat="45.51552" lon="6.60958">
        <ele>1558</ele>
        <time>2008-01-24T13:56:15Z</time>
      </trkpt>
      <trkpt lat="45.51553" lon="6.60933">
        <ele>1561</ele>
        <time>2008-01-24T13:56:23Z</time>
      </trkpt>
      <trkpt lat="45.51547" lon="6.60912">
        <ele>1559</ele>
        <time>2008-01-24T13:56:29Z</time>
      </trkpt>
      <trkpt lat="45.51535" lon="6.60895">
        <ele>1557</ele>
        <time>2008-01-24T13:56:37Z</time>
      </trkpt>
      <trkpt lat="45.51523" lon="6.6088">
        <ele>1555</ele>
        <time>2008-01-24T13:56:45Z</time>
      </trkpt>
      <trkpt lat="45.5151" lon="6.60863">
        <ele>1556</ele>
        <time>2008-01-24T13:56:58Z</time>
      </trkpt>
      <trkpt lat="45.51493" lon="6.60858">
        <ele>1552</ele>
        <time>2008-01-24T13:58:00Z</time>
      </trkpt>
      <trkpt lat="45.51478" lon="6.60848">
        <ele>1551</ele>
        <time>2008-01-24T13:58:06Z</time>
      </trkpt>
      <trkpt lat="45.51467" lon="6.60845">
        <ele>1550</ele>
        <time>2008-01-24T13:58:10Z</time>
      </trkpt>
      <trkpt lat="45.51453" lon="6.60843">
        <ele>1550</ele>
        <time>2008-01-24T13:58:14Z</time>
      </trkpt>
      <trkpt lat="45.51438" lon="6.60847">
        <ele>1550</ele>
        <time>2008-01-24T13:58:18Z</time>
      </trkpt>
      <trkpt lat="45.51425" lon="6.60853">
        <ele>1550</ele>
        <time>2008-01-24T13:58:22Z</time>
      </trkpt>
      <trkpt lat="45.5141" lon="6.60862">
        <ele>1550</ele>
        <time>2008-01-24T13:58:28Z</time>
      </trkpt>
      <trkpt lat="45.51408" lon="6.60843">
        <ele>1550</ele>
        <time>2008-01-24T13:58:35Z</time>
      </trkpt>
      <trkpt lat="45.51415" lon="6.60837">
        <ele>1550</ele>
        <time>2008-01-24T13:58:37Z</time>
      </trkpt>
      <trkpt lat="45.51423" lon="6.60827">
        <ele>1548</ele>
        <time>2008-01-24T13:58:39Z</time>
      </trkpt>
      <trkpt lat="45.51433" lon="6.60808">
        <ele>1545</ele>
        <time>2008-01-24T13:58:43Z</time>
      </trkpt>
      <trkpt lat="45.51433" lon="6.6079">
        <ele>1543</ele>
        <time>2008-01-24T13:58:45Z</time>
      </trkpt>
      <trkpt lat="45.51423" lon="6.60775">
        <ele>1537</ele>
        <time>2008-01-24T13:58:49Z</time>
      </trkpt>
      <trkpt lat="45.51413" lon="6.60762">
        <ele>1533</ele>
        <time>2008-01-24T13:58:53Z</time>
      </trkpt>
      <trkpt lat="45.51402" lon="6.60748">
        <ele>1529</ele>
        <time>2008-01-24T13:58:57Z</time>
      </trkpt>
      <trkpt lat="45.51392" lon="6.60735">
        <ele>1525</ele>
        <time>2008-01-24T13:59:01Z</time>
      </trkpt>
      <trkpt lat="45.51383" lon="6.6072">
        <ele>1522</ele>
        <time>2008-01-24T13:59:05Z</time>
      </trkpt>
      <trkpt lat="45.51372" lon="6.60703">
        <ele>1519</ele>
        <time>2008-01-24T13:59:09Z</time>
      </trkpt>
      <trkpt lat="45.51363" lon="6.60688">
        <ele>1516</ele>
        <time>2008-01-24T13:59:13Z</time>
      </trkpt>
      <trkpt lat="45.51355" lon="6.60673">
        <ele>1515</ele>
        <time>2008-01-24T13:59:17Z</time>
      </trkpt>
      <trkpt lat="45.51352" lon="6.60657">
        <ele>1514</ele>
        <time>2008-01-24T13:59:21Z</time>
      </trkpt>
      <trkpt lat="45.51352" lon="6.60638">
        <ele>1516</ele>
        <time>2008-01-24T13:59:25Z</time>
      </trkpt>
      <trkpt lat="45.51353" lon="6.6062">
        <ele>1515</ele>
        <time>2008-01-24T13:59:29Z</time>
      </trkpt>
      <trkpt lat="45.5136" lon="6.60603">
        <ele>1514</ele>
        <time>2008-01-24T13:59:33Z</time>
      </trkpt>
      <trkpt lat="45.51375" lon="6.60593">
        <ele>1511</ele>
        <time>2008-01-24T13:59:37Z</time>
      </trkpt>
      <trkpt lat="45.51385" lon="6.60592">
        <ele>1510</ele>
        <time>2008-01-24T13:59:39Z</time>
      </trkpt>
      <trkpt lat="45.51393" lon="6.60592">
        <ele>1508</ele>
        <time>2008-01-24T13:59:41Z</time>
      </trkpt>
      <trkpt lat="45.51403" lon="6.60588">
        <ele>1507</ele>
        <time>2008-01-24T13:59:43Z</time>
      </trkpt>
      <trkpt lat="45.514" lon="6.60567">
        <ele>1505</ele>
        <time>2008-01-24T13:59:49Z</time>
      </trkpt>
      <trkpt lat="45.51385" lon="6.60563">
        <ele>1503</ele>
        <time>2008-01-24T13:59:53Z</time>
      </trkpt>
      <trkpt lat="45.51375" lon="6.6056">
        <ele>1503</ele>
        <time>2008-01-24T13:59:55Z</time>
      </trkpt>
      <trkpt lat="45.51365" lon="6.60557">
        <ele>1502</ele>
        <time>2008-01-24T13:59:57Z</time>
      </trkpt>
      <trkpt lat="45.51355" lon="6.60555">
        <ele>1502</ele>
        <time>2008-01-24T13:59:59Z</time>
      </trkpt>
      <trkpt lat="45.51347" lon="6.6055">
        <ele>1501</ele>
        <time>2008-01-24T14:00:02Z</time>
      </trkpt>
      <trkpt lat="45.51337" lon="6.60547">
        <ele>1500</ele>
        <time>2008-01-24T14:00:03Z</time>
      </trkpt>
      <trkpt lat="45.5132" lon="6.6054">
        <ele>1500</ele>
        <time>2008-01-24T14:00:07Z</time>
      </trkpt>
      <trkpt lat="45.51308" lon="6.60533">
        <ele>1499</ele>
        <time>2008-01-24T14:00:12Z</time>
      </trkpt>
      <trkpt lat="45.51292" lon="6.60525">
        <ele>1498</ele>
        <time>2008-01-24T14:00:16Z</time>
      </trkpt>
      <trkpt lat="45.51277" lon="6.60517">
        <ele>1496</ele>
        <time>2008-01-24T14:00:20Z</time>
      </trkpt>
      <trkpt lat="45.5126" lon="6.6051">
        <ele>1495</ele>
        <time>2008-01-24T14:00:24Z</time>
      </trkpt>
      <trkpt lat="45.51243" lon="6.60505">
        <ele>1492</ele>
        <time>2008-01-24T14:00:28Z</time>
      </trkpt>
      <trkpt lat="45.51233" lon="6.60502">
        <ele>1492</ele>
        <time>2008-01-24T14:00:30Z</time>
      </trkpt>
      <trkpt lat="45.51217" lon="6.60493">
        <ele>1490</ele>
        <time>2008-01-24T14:00:34Z</time>
      </trkpt>
      <trkpt lat="45.51202" lon="6.60487">
        <ele>1488</ele>
        <time>2008-01-24T14:00:38Z</time>
      </trkpt>
      <trkpt lat="45.51188" lon="6.60482">
        <ele>1485</ele>
        <time>2008-01-24T14:00:42Z</time>
      </trkpt>
      <trkpt lat="45.51175" lon="6.60475">
        <ele>1484</ele>
        <time>2008-01-24T14:00:46Z</time>
      </trkpt>
      <trkpt lat="45.51163" lon="6.60465">
        <ele>1482</ele>
        <time>2008-01-24T14:00:50Z</time>
      </trkpt>
      <trkpt lat="45.51152" lon="6.60453">
        <ele>1480</ele>
        <time>2008-01-24T14:00:54Z</time>
      </trkpt>
      <trkpt lat="45.51142" lon="6.60438">
        <ele>1478</ele>
        <time>2008-01-24T14:00:58Z</time>
      </trkpt>
      <trkpt lat="45.5113" lon="6.60422">
        <ele>1477</ele>
        <time>2008-01-24T14:01:02Z</time>
      </trkpt>
      <trkpt lat="45.51118" lon="6.60413">
        <ele>1476</ele>
        <time>2008-01-24T14:01:06Z</time>
      </trkpt>
      <trkpt lat="45.51103" lon="6.60412">
        <ele>1475</ele>
        <time>2008-01-24T14:01:10Z</time>
      </trkpt>
      <trkpt lat="45.51087" lon="6.60407">
        <ele>1475</ele>
        <time>2008-01-24T14:01:14Z</time>
      </trkpt>
      <trkpt lat="45.51072" lon="6.604">
        <ele>1472</ele>
        <time>2008-01-24T14:01:18Z</time>
      </trkpt>
      <trkpt lat="45.51057" lon="6.60393">
        <ele>1469</ele>
        <time>2008-01-24T14:01:22Z</time>
      </trkpt>
      <trkpt lat="45.51043" lon="6.60385">
        <ele>1466</ele>
        <time>2008-01-24T14:01:26Z</time>
      </trkpt>
      <trkpt lat="45.5103" lon="6.60375">
        <ele>1463</ele>
        <time>2008-01-24T14:01:30Z</time>
      </trkpt>
      <trkpt lat="45.51017" lon="6.60365">
        <ele>1461</ele>
        <time>2008-01-24T14:01:34Z</time>
      </trkpt>
      <trkpt lat="45.51003" lon="6.60353">
        <ele>1460</ele>
        <time>2008-01-24T14:01:38Z</time>
      </trkpt>
      <trkpt lat="45.50992" lon="6.60343">
        <ele>1458</ele>
        <time>2008-01-24T14:01:43Z</time>
      </trkpt>
      <trkpt lat="45.50977" lon="6.60333">
        <ele>1458</ele>
        <time>2008-01-24T14:01:47Z</time>
      </trkpt>
      <trkpt lat="45.50963" lon="6.60328">
        <ele>1458</ele>
        <time>2008-01-24T14:01:51Z</time>
      </trkpt>
      <trkpt lat="45.50948" lon="6.60323">
        <ele>1456</ele>
        <time>2008-01-24T14:01:55Z</time>
      </trkpt>
      <trkpt lat="45.50937" lon="6.60317">
        <ele>1455</ele>
        <time>2008-01-24T14:01:57Z</time>
      </trkpt>
      <trkpt lat="45.50922" lon="6.60305">
        <ele>1453</ele>
        <time>2008-01-24T14:02:01Z</time>
      </trkpt>
      <trkpt lat="45.50907" lon="6.60293">
        <ele>1451</ele>
        <time>2008-01-24T14:02:05Z</time>
      </trkpt>
      <trkpt lat="45.50895" lon="6.60283">
        <ele>1450</ele>
        <time>2008-01-24T14:02:09Z</time>
      </trkpt>
      <trkpt lat="45.5088" lon="6.60272">
        <ele>1448</ele>
        <time>2008-01-24T14:02:15Z</time>
      </trkpt>
      <trkpt lat="45.50868" lon="6.6026">
        <ele>1447</ele>
        <time>2008-01-24T14:02:19Z</time>
      </trkpt>
      <trkpt lat="45.50857" lon="6.60243">
        <ele>1446</ele>
        <time>2008-01-24T14:02:27Z</time>
      </trkpt>
      <trkpt lat="45.50847" lon="6.60225">
        <ele>1446</ele>
        <time>2008-01-24T14:02:33Z</time>
      </trkpt>
      <trkpt lat="45.50837" lon="6.60208">
        <ele>1445</ele>
        <time>2008-01-24T14:02:37Z</time>
      </trkpt>
      <trkpt lat="45.50823" lon="6.60192">
        <ele>1442</ele>
        <time>2008-01-24T14:02:41Z</time>
      </trkpt>
      <trkpt lat="45.50817" lon="6.60185">
        <ele>1441</ele>
        <time>2008-01-24T14:02:43Z</time>
      </trkpt>
      <trkpt lat="45.50808" lon="6.60177">
        <ele>1440</ele>
        <time>2008-01-24T14:02:45Z</time>
      </trkpt>
      <trkpt lat="45.50802" lon="6.60168">
        <ele>1438</ele>
        <time>2008-01-24T14:02:47Z</time>
      </trkpt>
      <trkpt lat="45.50793" lon="6.60157">
        <ele>1437</ele>
        <time>2008-01-24T14:02:49Z</time>
      </trkpt>
      <trkpt lat="45.50788" lon="6.60143">
        <ele>1436</ele>
        <time>2008-01-24T14:02:51Z</time>
      </trkpt>
      <trkpt lat="45.50782" lon="6.6013">
        <ele>1435</ele>
        <time>2008-01-24T14:02:53Z</time>
      </trkpt>
      <trkpt lat="45.50775" lon="6.60117">
        <ele>1433</ele>
        <time>2008-01-24T14:02:55Z</time>
      </trkpt>
      <trkpt lat="45.5077" lon="6.60103">
        <ele>1433</ele>
        <time>2008-01-24T14:02:57Z</time>
      </trkpt>
      <trkpt lat="45.50765" lon="6.60088">
        <ele>1432</ele>
        <time>2008-01-24T14:02:59Z</time>
      </trkpt>
      <trkpt lat="45.50762" lon="6.60073">
        <ele>1432</ele>
        <time>2008-01-24T14:03:01Z</time>
      </trkpt>
      <trkpt lat="45.50757" lon="6.6006">
        <ele>1431</ele>
        <time>2008-01-24T14:03:04Z</time>
      </trkpt>
      <trkpt lat="45.5075" lon="6.60045">
        <ele>1429</ele>
        <time>2008-01-24T14:03:05Z</time>
      </trkpt>
      <trkpt lat="45.50745" lon="6.60032">
        <ele>1428</ele>
        <time>2008-01-24T14:03:08Z</time>
      </trkpt>
      <trkpt lat="45.50738" lon="6.60017">
        <ele>1427</ele>
        <time>2008-01-24T14:03:09Z</time>
      </trkpt>
      <trkpt lat="45.50733" lon="6.60003">
        <ele>1426</ele>
        <time>2008-01-24T14:03:12Z</time>
      </trkpt>
      <trkpt lat="45.50728" lon="6.5999">
        <ele>1425</ele>
        <time>2008-01-24T14:03:14Z</time>
      </trkpt>
      <trkpt lat="45.50725" lon="6.59977">
        <ele>1424</ele>
        <time>2008-01-24T14:03:16Z</time>
      </trkpt>
      <trkpt lat="45.50718" lon="6.59963">
        <ele>1424</ele>
        <time>2008-01-24T14:03:18Z</time>
      </trkpt>
      <trkpt lat="45.50707" lon="6.59945">
        <ele>1422</ele>
        <time>2008-01-24T14:03:52Z</time>
      </trkpt>
      <trkpt lat="45.50697" lon="6.5994">
        <ele>1421</ele>
        <time>2008-01-24T14:03:56Z</time>
      </trkpt>
      <trkpt lat="45.50685" lon="6.59922">
        <ele>1422</ele>
        <time>2008-01-24T14:04:00Z</time>
      </trkpt>
      <trkpt lat="45.50683" lon="6.59902">
        <ele>1423</ele>
        <time>2008-01-24T14:04:04Z</time>
      </trkpt>
      <trkpt lat="45.50687" lon="6.59882">
        <ele>1422</ele>
        <time>2008-01-24T14:04:08Z</time>
      </trkpt>
      <trkpt lat="45.50692" lon="6.5986">
        <ele>1422</ele>
        <time>2008-01-24T14:04:12Z</time>
      </trkpt>
      <trkpt lat="45.50702" lon="6.5985">
        <ele>1418</ele>
        <time>2008-01-24T14:04:42Z</time>
      </trkpt>
      <trkpt lat="45.50713" lon="6.59843">
        <ele>1411</ele>
        <time>2008-01-24T14:04:46Z</time>
      </trkpt>
      <trkpt lat="45.50727" lon="6.59842">
        <ele>1400</ele>
        <time>2008-01-24T14:04:53Z</time>
      </trkpt>
      <trkpt lat="45.50743" lon="6.59842">
        <ele>1390</ele>
        <time>2008-01-24T14:04:59Z</time>
      </trkpt>
      <trkpt lat="45.50758" lon="6.59833">
        <ele>1380</ele>
        <time>2008-01-24T14:05:05Z</time>
      </trkpt>
      <trkpt lat="45.5077" lon="6.5984">
        <ele>1373</ele>
        <time>2008-01-24T14:05:07Z</time>
      </trkpt>
      <trkpt lat="45.50788" lon="6.59833">
        <ele>1372</ele>
        <time>2008-01-24T14:05:09Z</time>
      </trkpt>
      <trkpt lat="45.50795" lon="6.59835">
        <ele>1367</ele>
        <time>2008-01-24T14:05:11Z</time>
      </trkpt>
      <trkpt lat="45.50812" lon="6.59835">
        <ele>1364</ele>
        <time>2008-01-24T14:05:13Z</time>
      </trkpt>
      <trkpt lat="45.50822" lon="6.59832">
        <ele>1361</ele>
        <time>2008-01-24T14:05:15Z</time>
      </trkpt>
      <trkpt lat="45.50833" lon="6.59823">
        <ele>1358</ele>
        <time>2008-01-24T14:05:17Z</time>
      </trkpt>
      <trkpt lat="45.50843" lon="6.59828">
        <ele>1358</ele>
        <time>2008-01-24T14:05:19Z</time>
      </trkpt>
      <trkpt lat="45.50857" lon="6.59842">
        <ele>1355</ele>
        <time>2008-01-24T14:05:23Z</time>
      </trkpt>
      <trkpt lat="45.50867" lon="6.59838">
        <ele>1353</ele>
        <time>2008-01-24T14:05:25Z</time>
      </trkpt>
      <trkpt lat="45.50875" lon="6.59842">
        <ele>1351</ele>
        <time>2008-01-24T14:05:27Z</time>
      </trkpt>
      <trkpt lat="45.50885" lon="6.5984">
        <ele>1348</ele>
        <time>2008-01-24T14:05:29Z</time>
      </trkpt>
      <trkpt lat="45.50898" lon="6.59838">
        <ele>1345</ele>
        <time>2008-01-24T14:05:31Z</time>
      </trkpt>
      <trkpt lat="45.50908" lon="6.59847">
        <ele>1344</ele>
        <time>2008-01-24T14:05:33Z</time>
      </trkpt>
      <trkpt lat="45.50923" lon="6.59855">
        <ele>1340</ele>
        <time>2008-01-24T14:05:37Z</time>
      </trkpt>
      <trkpt lat="45.50935" lon="6.59845">
        <ele>1340</ele>
        <time>2008-01-24T14:06:23Z</time>
      </trkpt>
      <trkpt lat="45.5095" lon="6.59852">
        <ele>1333</ele>
        <time>2008-01-24T14:06:27Z</time>
      </trkpt>
      <trkpt lat="45.50958" lon="6.59845">
        <ele>1328</ele>
        <time>2008-01-24T14:06:29Z</time>
      </trkpt>
      <trkpt lat="45.50967" lon="6.59835">
        <ele>1323</ele>
        <time>2008-01-24T14:06:31Z</time>
      </trkpt>
      <trkpt lat="45.50977" lon="6.59832">
        <ele>1319</ele>
        <time>2008-01-24T14:06:33Z</time>
      </trkpt>
      <trkpt lat="45.50982" lon="6.59817">
        <ele>1315</ele>
        <time>2008-01-24T14:06:36Z</time>
      </trkpt>
      <trkpt lat="45.50998" lon="6.59808">
        <ele>1307</ele>
        <time>2008-01-24T14:06:40Z</time>
      </trkpt>
      <trkpt lat="45.51" lon="6.5979">
        <ele>1300</ele>
        <time>2008-01-24T14:06:42Z</time>
      </trkpt>
      <trkpt lat="45.5101" lon="6.59753">
        <ele>1296</ele>
        <time>2008-01-24T14:06:44Z</time>
      </trkpt>
      <trkpt lat="45.51015" lon="6.59727">
        <ele>1293</ele>
        <time>2008-01-24T14:06:46Z</time>
      </trkpt>
      <trkpt lat="45.5102" lon="6.59702">
        <ele>1291</ele>
        <time>2008-01-24T14:06:48Z</time>
      </trkpt>
      <trkpt lat="45.51022" lon="6.59677">
        <ele>1289</ele>
        <time>2008-01-24T14:06:50Z</time>
      </trkpt>
      <trkpt lat="45.51025" lon="6.59655">
        <ele>1287</ele>
        <time>2008-01-24T14:06:52Z</time>
      </trkpt>
      <trkpt lat="45.51027" lon="6.59635">
        <ele>1285</ele>
        <time>2008-01-24T14:06:54Z</time>
      </trkpt>
      <trkpt lat="45.51033" lon="6.59615">
        <ele>1283</ele>
        <time>2008-01-24T14:06:56Z</time>
      </trkpt>
      <trkpt lat="45.51042" lon="6.59595">
        <ele>1281</ele>
        <time>2008-01-24T14:06:58Z</time>
      </trkpt>
      <trkpt lat="45.51047" lon="6.59575">
        <ele>1279</ele>
        <time>2008-01-24T14:07:00Z</time>
      </trkpt>
      <trkpt lat="45.51053" lon="6.59557">
        <ele>1277</ele>
        <time>2008-01-24T14:07:02Z</time>
      </trkpt>
      <trkpt lat="45.51062" lon="6.5954">
        <ele>1276</ele>
        <time>2008-01-24T14:07:04Z</time>
      </trkpt>
      <trkpt lat="45.51067" lon="6.59522">
        <ele>1274</ele>
        <time>2008-01-24T14:07:06Z</time>
      </trkpt>
      <trkpt lat="45.51053" lon="6.59508">
        <ele>1277</ele>
        <time>2008-01-24T14:07:44Z</time>
      </trkpt>
      <trkpt lat="45.51043" lon="6.59497">
        <ele>1275</ele>
        <time>2008-01-24T14:07:50Z</time>
      </trkpt>
      <trkpt lat="45.51032" lon="6.59482">
        <ele>1275</ele>
        <time>2008-01-24T14:07:54Z</time>
      </trkpt>
      <trkpt lat="45.5102" lon="6.59468">
        <ele>1274</ele>
        <time>2008-01-24T14:07:58Z</time>
      </trkpt>
      <trkpt lat="45.51005" lon="6.59457">
        <ele>1274</ele>
        <time>2008-01-24T14:08:05Z</time>
      </trkpt>
      <trkpt lat="45.50995" lon="6.59443">
        <ele>1273</ele>
        <time>2008-01-24T14:08:09Z</time>
      </trkpt>
      <trkpt lat="45.50982" lon="6.59427">
        <ele>1273</ele>
        <time>2008-01-24T14:08:13Z</time>
      </trkpt>
      <trkpt lat="45.5097" lon="6.5941">
        <ele>1272</ele>
        <time>2008-01-24T14:08:17Z</time>
      </trkpt>
      <trkpt lat="45.50962" lon="6.5939">
        <ele>1273</ele>
        <time>2008-01-24T14:09:52Z</time>
      </trkpt>
      <trkpt lat="45.50973" lon="6.59372">
        <ele>1274</ele>
        <time>2008-01-24T14:11:39Z</time>
      </trkpt>
      <trkpt lat="45.5099" lon="6.59367">
        <ele>1276</ele>
        <time>2008-01-24T14:11:57Z</time>
      </trkpt>
    </trkseg>
  </trk>
</gpx>